NOAA Web Site Link Tides and Currents Home Page Transparent placeholder image

PORTS® Data Listing: 8594900 Washington, DC

CO-OPS RAW PORTS DATA

************************      PRELIMINARY DATA      ************************** 

     THIS RAW DATA HAS NOT BEEN SUBJECT TO THE NATIONAL OCEAN SERVICE'S        
     QUALITY CONTROL OR QUALITY ASSURANCE PROCEDURES AND DOES NOT MEET         
     THE CRITERIA AND STANDARDS OF OFFICIAL NATIONAL OCEAN SERVICE             
     DATA.  IT IS RELEASED FOR LIMITED PUBLIC USE AS PRELIMINARY DATA TO       
     BE USED ONLY WITH APPROPRIATE CAUTION.                                    

************************      PRELIMINARY DATA      ************************** 


       CD   -   Calendar date
       T    -   Time
       TZ   -   Timezone
       PW   -   Predicted water level (feet above MLLW)
       OW   -   Observed water level (feet above MLLW)
       WS   -   Wind speed (knots)
       WD   -   Wind direction (degrees true)
       WG   -   Wind gust (knots)
       AT   -   Air temperature (degrees farenheit)
       WT   -   Water temperature (degrees farenheit)
       AP   -   Air pressure (millibars)
       SA   -   Salinty (PSU - Practical Salinity Units)
       SG   -   Specific gravity
       RH   -   Relative humidity
       AG   -   Air gap (feet)
       VI   -   Visibility (nautical miles)

       ** NOTE **
       A variable that has its data fields filled with "9"s, indicates that
       data was not collected for that sample period.
       **********


STATION NAME: Washington (8594900)
****************************************************************************************************
    CD       T    TZ    PW     OW    WS   WD   WG    AT    WT    AP    SA    SG     RH    AG   VI
****************************************************************************************************
2019/05/19 06:54 EDT    2.66   3.76    2  225    2  65.7  64.9 1017.4 -9.9 -9.999 -99.9 -99.99 -9.99
2019/05/19 07:00 EDT    2.75   3.83    1  183    2  65.8  64.9 1017.3 -9.9 -9.999 -99.9 -99.99 -9.99
2019/05/19 07:06 EDT    2.83   3.89    2  182    2  66.0  64.9 1017.2 -9.9 -9.999 -99.9 -99.99 -9.99
2019/05/19 07:12 EDT    2.92   3.95    1  190    2  66.2  64.9 1017.3 -9.9 -9.999 -99.9 -99.99 -9.99
2019/05/19 07:18 EDT    2.99   4.01    1  202    2  66.4  64.9 1017.3 -9.9 -9.999 -99.9 -99.99 -9.99
2019/05/19 07:24 EDT    3.07   4.06    1  209    1  66.9  64.9 1017.2 -9.9 -9.999 -99.9 -99.99 -9.99
2019/05/19 07:30 EDT    3.14   4.11    0  187    2  68.2  64.8 1017.1 -9.9 -9.999 -99.9 -99.99 -9.99
2019/05/19 07:36 EDT    3.21   4.16    1  212    2  68.0  64.8 1017.1 -9.9 -9.999 -99.9 -99.99 -9.99
2019/05/19 07:42 EDT    3.27   4.21    1  192    2  68.2  64.8 1017.1 -9.9 -9.999 -99.9 -99.99 -9.99
2019/05/19 07:48 EDT    3.33   4.25    1  208    2  68.5  64.8 1017.1 -9.9 -9.999 -99.9 -99.99 -9.99
2019/05/19 07:54 EDT    3.38   4.29    2  229    2  68.5  64.8 1017.1 -9.9 -9.999 -99.9 -99.99 -9.99
2019/05/19 08:00 EDT    3.43   4.32    2  205    3  68.7  64.8 1017.0 -9.9 -9.999 -99.9 -99.99 -9.99
2019/05/19 08:06 EDT    3.48   4.36    0  199    2  69.3  64.8 1017.0 -9.9 -9.999 -99.9 -99.99 -9.99
2019/05/19 08:12 EDT    3.52   4.39    1  188    3  69.6  64.8 1016.9 -9.9 -9.999 -99.9 -99.99 -9.99
2019/05/19 08:18 EDT    3.56   4.42    2  182    2  68.9  64.8 1017.0 -9.9 -9.999 -99.9 -99.99 -9.99
2019/05/19 08:24 EDT    3.59   4.43    1  172    3  69.3  64.8 1017.0 -9.9 -9.999 -99.9 -99.99 -9.99
2019/05/19 08:30 EDT    3.62   4.46    2  216    2  69.8  64.8 1017.1 -9.9 -9.999 -99.9 -99.99 -9.99
2019/05/19 08:36 EDT    3.64   4.48    1  261    2  70.3  64.8 1017.1 -9.9 -9.999 -99.9 -99.99 -9.99
2019/05/19 08:42 EDT    3.66   4.50    0  218    4  71.4  64.8 1017.1 -9.9 -9.999 -99.9 -99.99 -9.99
2019/05/19 08:48 EDT    3.67   4.51    2  195    4  70.9  64.8 1017.0 -9.9 -9.999 -99.9 -99.99 -9.99
2019/05/19 08:54 EDT    3.68   4.52    3  179    4  70.5  64.8 1017.0 -9.9 -9.999 -99.9 -99.99 -9.99
2019/05/19 09:00 EDT    3.68   4.52    3  173    3  70.5  64.6 1016.9 -9.9 -9.999 -99.9 -99.99 -9.99
2019/05/19 09:06 EDT    3.68   4.52    2  168    3  71.1  64.6 1016.8 -9.9 -9.999 -99.9 -99.99 -9.99
2019/05/19 09:12 EDT    3.68   4.52    2  175    3  71.1  64.6 1016.8 -9.9 -9.999 -99.9 -99.99 -9.99
2019/05/19 09:18 EDT    3.66   4.52    2  199    3  71.8  64.6 1016.8 -9.9 -9.999 -99.9 -99.99 -9.99
2019/05/19 09:24 EDT    3.65   4.51    2  230    4  72.3  64.8 1016.9 -9.9 -9.999 -99.9 -99.99 -9.99
2019/05/19 09:30 EDT    3.63   4.49    4  204    5  72.5  64.8 1016.9 -9.9 -9.999 -99.9 -99.99 -9.99
2019/05/19 09:36 EDT    3.60   4.47    3  204    7  72.7  64.8 1017.0 -9.9 -9.999 -99.9 -99.99 -9.99
2019/05/19 09:42 EDT    3.57   4.45    5  212    7  72.7  64.8 1017.1 -9.9 -9.999 -99.9 -99.99 -9.99
2019/05/19 09:48 EDT    3.53   4.42    5  205    8  72.9  64.8 1017.1 -9.9 -9.999 -99.9 -99.99 -9.99
2019/05/19 09:54 EDT    3.50   4.40    5  188    8  72.9  64.8 1017.0 -9.9 -9.999 -99.9 -99.99 -9.99
2019/05/19 10:00 EDT    3.45   4.38    5  171    6  72.3  64.8 1016.9 -9.9 -9.999 -99.9 -99.99 -9.99
2019/05/19 10:06 EDT    3.41   4.34    6  174    7  72.0  64.8 1017.0 -9.9 -9.999 -99.9 -99.99 -9.99
2019/05/19 10:12 EDT    3.36   4.29    6  172    7  71.8  64.8 1016.9 -9.9 -9.999 -99.9 -99.99 -9.99
2019/05/19 10:18 EDT    3.30   4.25    4  173    5  72.3  64.8 1016.8 -9.9 -9.999 -99.9 -99.99 -9.99
2019/05/19 10:24 EDT    3.25   4.21    3  157    5  73.4  64.8 1016.7 -9.9 -9.999 -99.9 -99.99 -9.99
2019/05/19 10:30 EDT    3.19   4.16    4  172    5  73.6  64.8 1016.7 -9.9 -9.999 -99.9 -99.99 -9.99
2019/05/19 10:36 EDT    3.13   4.11    4  174    7  73.8  64.8 1016.6 -9.9 -9.999 -99.9 -99.99 -9.99
2019/05/19 10:42 EDT    3.07   4.05    5  190    6  74.3  64.8 1016.6 -9.9 -9.999 -99.9 -99.99 -9.99
2019/05/19 10:48 EDT    3.01   4.00    3  198    6  74.5  64.9 1016.6 -9.9 -9.999 -99.9 -99.99 -9.99
2019/05/19 10:54 EDT    2.94   3.96    4  208    7  75.4  64.9 1016.6 -9.9 -9.999 -99.9 -99.99 -9.99
2019/05/19 11:00 EDT    2.87   3.90    5  200    6  75.4  64.9 1016.4 -9.9 -9.999 -99.9 -99.99 -9.99
2019/05/19 11:06 EDT    2.81   3.83    5  190    7  75.2  64.9 1016.4 -9.9 -9.999 -99.9 -99.99 -9.99
2019/05/19 11:12 EDT    2.74   3.77    5  200    7  75.7  64.9 1016.4 -9.9 -9.999 -99.9 -99.99 -9.99
2019/05/19 11:18 EDT    2.67   3.71    4  210    5  76.5  64.9 1016.4 -9.9 -9.999 -99.9 -99.99 -9.99
2019/05/19 11:24 EDT    2.60   3.65    5  202    5  76.5  64.9 1016.4 -9.9 -9.999 -99.9 -99.99 -9.99
2019/05/19 11:30 EDT    2.54   3.59    4  206    6  77.2  64.9 1016.4 -9.9 -9.999 -99.9 -99.99 -9.99
2019/05/19 11:36 EDT    2.47   3.52    5  212    7  77.4  64.9 1016.4 -9.9 -9.999 -99.9 -99.99 -9.99
2019/05/19 11:42 EDT    2.40   3.46    5  195    6  77.4  64.9 1016.4 -9.9 -9.999 -99.9 -99.99 -9.99
2019/05/19 11:48 EDT    2.33   3.39    4  183    7  77.4  64.9 1016.4 -9.9 -9.999 -99.9 -99.99 -9.99
2019/05/19 11:54 EDT    2.26   3.33    5  190    7  77.2  64.9 1016.3 -9.9 -9.999 -99.9 -99.99 -9.99
2019/05/19 12:00 EDT    2.20   3.27    4  176    7  77.9  64.9 1016.3 -9.9 -9.999 -99.9 -99.99 -9.99
2019/05/19 12:06 EDT    2.13   3.20    5  167    7  77.7  64.9 1016.2 -9.9 -9.999 -99.9 -99.99 -9.99
2019/05/19 12:12 EDT    2.06   3.15    6  179    8  77.0  64.9 1016.2 -9.9 -9.999 -99.9 -99.99 -9.99
2019/05/19 12:18 EDT    2.00   3.08    5  189    8  78.8  65.1 1016.1 -9.9 -9.999 -99.9 -99.99 -9.99
2019/05/19 12:24 EDT    1.93   3.02    7  192    8  79.5  65.1 1016.1 -9.9 -9.999 -99.9 -99.99 -9.99
2019/05/19 12:30 EDT    1.86   2.97    5  183    8  78.8  65.1 1016.0 -9.9 -9.999 -99.9 -99.99 -9.99
2019/05/19 12:36 EDT    1.80   2.91    6  187    8  79.3  64.9 1015.8 -9.9 -9.999 -99.9 -99.99 -9.99
2019/05/19 12:42 EDT    1.74   2.85    5  188    8  80.4  65.1 1015.8 -9.9 -9.999 -99.9 -99.99 -9.99
2019/05/19 12:48 EDT    1.67   2.78    5  193    9  81.1  65.1 1015.8 -9.9 -9.999 -99.9 -99.99 -9.99
2019/05/19 12:54 EDT    1.61   2.73    7  187    8  81.1  65.1 1015.7 -9.9 -9.999 -99.9 -99.99 -9.99
2019/05/19 13:00 EDT    1.55   2.68    6  184    8  81.1  65.1 1015.6 -9.9 -9.999 -99.9 -99.99 -9.99
2019/05/19 13:06 EDT    1.48   2.62    5  185    8  80.4  65.1 1015.6 -9.9 -9.999 -99.9 -99.99 -9.99
2019/05/19 13:12 EDT    1.42   2.56    6  184    9  79.7  65.1 1015.6 -9.9 -9.999 -99.9 -99.99 -9.99
2019/05/19 13:18 EDT    1.36   2.52    8  172    9  80.8  65.1 1015.5 -9.9 -9.999 -99.9 -99.99 -9.99
2019/05/19 13:24 EDT    1.30   2.46    7  186    9  79.3  65.1 1015.4 -9.9 -9.999 -99.9 -99.99 -9.99
2019/05/19 13:30 EDT    1.24   2.41    8  175   12  81.5  65.1 1015.3 -9.9 -9.999 -99.9 -99.99 -9.99
2019/05/19 13:36 EDT    1.19   2.37    8  174    9  79.3  64.9 1015.3 -9.9 -9.999 -99.9 -99.99 -9.99
2019/05/19 13:42 EDT    1.13   2.32    8  176   12  78.4  65.1 1015.2 -9.9 -9.999 -99.9 -99.99 -9.99
2019/05/19 13:48 EDT    1.07   2.27    9  176   11  78.8  65.1 1015.1 -9.9 -9.999 -99.9 -99.99 -9.99
2019/05/19 13:54 EDT    1.02   2.23    9  177   10  79.7  65.1 1015.0 -9.9 -9.999 -99.9 -99.99 -9.99
2019/05/19 14:00 EDT    0.96   2.18    9  172   12  79.2  65.1 1014.9 -9.9 -9.999 -99.9 -99.99 -9.99
2019/05/19 14:06 EDT    0.90   2.14    8  182   11  82.2  65.3 1014.8 -9.9 -9.999 -99.9 -99.99 -9.99
2019/05/19 14:12 EDT    0.85   2.09   10  177   11  81.7  65.3 1014.7 -9.9 -9.999 -99.9 -99.99 -9.99
2019/05/19 14:18 EDT    0.79   2.05    7  176   10  81.7  65.1 1014.7 -9.9 -9.999 -99.9 -99.99 -9.99
2019/05/19 14:24 EDT    0.74   2.01    8  185   11  82.2  65.3 1014.6 -9.9 -9.999 -99.9 -99.99 -9.99
2019/05/19 14:30 EDT    0.69   1.97    8  178   12  82.6  65.3 1014.5 -9.9 -9.999 -99.9 -99.99 -9.99
2019/05/19 14:36 EDT    0.63   1.93    8  181   10  83.7  65.3 1014.4 -9.9 -9.999 -99.9 -99.99 -9.99
2019/05/19 14:42 EDT    0.58   1.89    8  190   11  84.2  65.3 1014.4 -9.9 -9.999 -99.9 -99.99 -9.99
2019/05/19 14:48 EDT    0.53   1.86    8  181   11  82.8  65.3 1014.3 -9.9 -9.999 -99.9 -99.99 -9.99
2019/05/19 14:54 EDT    0.47   1.82   10  180   12  83.3  65.3 1014.2 -9.9 -9.999 -99.9 -99.99 -9.99
2019/05/19 15:00 EDT    0.42   1.78    9  181   12  82.6  65.5 1014.1 -9.9 -9.999 -99.9 -99.99 -9.99
2019/05/19 15:06 EDT    0.37   1.75    9  183   14  82.9  65.5 1014.0 -9.9 -9.999 -99.9 -99.99 -9.99
2019/05/19 15:12 EDT    0.32   1.71   11  178   14  83.1  65.5 1013.8 -9.9 -9.999 -99.9 -99.99 -9.99
2019/05/19 15:18 EDT    0.28   1.69   10  178   13  83.5  65.5 1013.7 -9.9 -9.999 -99.9 -99.99 -9.99
2019/05/19 15:24 EDT    0.23   1.66   11  177   13  81.7  65.7 1013.6 -9.9 -9.999 -99.9 -99.99 -9.99
2019/05/19 15:30 EDT    0.19   1.62   10  177   14  82.9  65.7 1013.5 -9.9 -9.999 -99.9 -99.99 -9.99
2019/05/19 15:36 EDT    0.15   1.59   11  183   15  84.9  65.7 1013.3 -9.9 -9.999 -99.9 -99.99 -9.99
2019/05/19 15:42 EDT    0.11   1.56   11  187   13  85.8  65.8 1013.3 -9.9 -9.999 -99.9 -99.99 -9.99
2019/05/19 15:48 EDT    0.07   1.53   11  185   13  85.5  65.8 1013.3 -9.9 -9.999 -99.9 -99.99 -9.99
2019/05/19 15:54 EDT    0.04   1.50    9  186   14  85.5  65.8 1013.3 -9.9 -9.999 -99.9 -99.99 -9.99
2019/05/19 16:00 EDT    0.02   1.47   10  185   12  84.7  66.0 1013.2 -9.9 -9.999 -99.9 -99.99 -9.99
2019/05/19 16:06 EDT   -0.01   1.44   11  171   14  84.2  66.0 1013.1 -9.9 -9.999 -99.9 -99.99 -9.99
2019/05/19 16:12 EDT   -0.03   1.42   12  179   15  85.5  66.4 1012.9 -9.9 -9.999 -99.9 -99.99 -9.99
2019/05/19 16:18 EDT   -0.04   1.40   11  184   18  84.9  66.6 1012.8 -9.9 -9.999 -99.9 -99.99 -9.99
2019/05/19 16:24 EDT   -0.04   1.38   14  173   18  84.6  66.9 1012.7 -9.9 -9.999 -99.9 -99.99 -9.99
2019/05/19 16:30 EDT   -0.04   1.37   14  177   17  84.6  67.3 1012.6 -9.9 -9.999 -99.9 -99.99 -9.99
2019/05/19 16:36 EDT   -0.04   1.36   12  187   15  87.1  68.0 1012.5 -9.9 -9.999 -99.9 -99.99 -9.99
2019/05/19 16:42 EDT   -0.03   1.34   13  180   17  84.9  68.4 1012.4 -9.9 -9.999 -99.9 -99.99 -9.99
2019/05/19 16:48 EDT   -0.01   1.33   15  179   17  86.5  69.1 1012.3 -9.9 -9.999 -99.9 -99.99 -9.99
2019/05/19 16:54 EDT    0.02   1.33   13  181   16  84.7  68.9 1012.3 -9.9 -9.999 -99.9 -99.99 -9.99
2019/05/19 17:00 EDT    0.05   1.33   13  183   17  86.5  68.9 1012.3 -9.9 -9.999 -99.9 -99.99 -9.99
2019/05/19 17:06 EDT    0.09   1.33   15  179   19  86.2  68.9 1012.3 -9.9 -9.999 -99.9 -99.99 -9.99
2019/05/19 17:12 EDT    0.14   1.35   13  183   15  85.6  69.1 1012.3 -9.9 -9.999 -99.9 -99.99 -9.99
2019/05/19 17:18 EDT    0.19   1.38   13  185   17  86.9  69.3 1012.1 -9.9 -9.999 -99.9 -99.99 -9.99
2019/05/19 17:24 EDT    0.25   1.40   12  179   17  86.2  69.1 1012.1 -9.9 -9.999 -99.9 -99.99 -9.99
2019/05/19 17:30 EDT    0.32   1.45   13  181   18  85.5  68.7 1011.9 -9.9 -9.999 -99.9 -99.99 -9.99
2019/05/19 17:36 EDT    0.39   1.50   13  187   18  86.5  68.5 1011.8 -9.9 -9.999 -99.9 -99.99 -9.99
2019/05/19 17:42 EDT    0.47   1.56   14  180   17  85.1  68.4 1011.8 -9.9 -9.999 -99.9 -99.99 -9.99
2019/05/19 17:48 EDT    0.55   1.63   13  184   16  85.8  68.2 1011.8 -9.9 -9.999 -99.9 -99.99 -9.99
2019/05/19 17:54 EDT    0.63   1.70   10  186   13  84.0  68.0 1011.8 -9.9 -9.999 -99.9 -99.99 -9.99
2019/05/19 18:00 EDT    0.72   1.79   11  184   14  86.5  68.0 1011.8 -9.9 -9.999 -99.9 -99.99 -9.99
2019/05/19 18:06 EDT    0.81   1.88   10  187   15  85.6  68.0 1011.9 -9.9 -9.999 -99.9 -99.99 -9.99
2019/05/19 18:12 EDT    0.90   1.98   12  182   14  85.8  67.8 1011.7 -9.9 -9.999 -99.9 -99.99 -9.99
2019/05/19 18:18 EDT    1.00   2.09   11  180   15  86.2  67.8 1011.6 -9.9 -9.999 -99.9 -99.99 -9.99
2019/05/19 18:24 EDT    1.10   2.20   11  184   14  86.2  67.6 1011.4 -9.9 -9.999 -99.9 -99.99 -9.99
2019/05/19 18:30 EDT    1.19   2.32   11  188   14  86.5  67.6 1011.4 -9.9 -9.999 -99.9 -99.99 -9.99
2019/05/19 18:36 EDT    1.29   2.43   10  189   12  86.4  67.6 1011.4 -9.9 -9.999 -99.9 -99.99 -9.99
2019/05/19 18:42 EDT    1.39   2.55    9  194   13  86.0  67.5 1011.4 -9.9 -9.999 -99.9 -99.99 -9.99
2019/05/19 18:48 EDT    1.49   2.66   10  185   13  85.3  67.3 1011.3 -9.9 -9.999 -99.9 -99.99 -9.99
2019/05/19 18:54 EDT    1.59   2.77    9  186   13  85.5  67.3 1011.3 -9.9 -9.999 -99.9 -99.99 -9.99
2019/05/19 19:00 EDT    1.68   2.88   10  180   13  84.9  67.3 1011.4 -9.9 -9.999 -99.9 -99.99 -9.99
2019/05/19 19:06 EDT    1.78   2.99    9  184   11  80.1  67.1 1011.4 -9.9 -9.999 -99.9 -99.99 -9.99
2019/05/19 19:12 EDT    1.87   3.10    8  185   11  84.2  67.1 1011.4 -9.9 -9.999 -99.9 -99.99 -9.99
2019/05/19 19:18 EDT    1.96   3.20    9  186   13  84.7  67.1 1011.4 -9.9 -9.999 -99.9 -99.99 -9.99
2019/05/19 19:24 EDT    2.05   3.31    9  183   11  83.5  67.1 1011.5 -9.9 -9.999 -99.9 -99.99 -9.99
2019/05/19 19:30 EDT    2.13   3.40    8  182   11  80.1  67.1 1011.6 -9.9 -9.999 -99.9 -99.99 -9.99
2019/05/19 19:36 EDT    2.21   3.49    7  184    9  79.9  67.1 1011.7 -9.9 -9.999 -99.9 -99.99 -9.99
2019/05/19 19:42 EDT    2.29   3.57    6  182    7  79.0  67.1 1011.8 -9.9 -9.999 -99.9 -99.99 -9.99
2019/05/19 19:48 EDT    2.37   3.64    5  178    7  79.3  67.1 1011.8 -9.9 -9.999 -99.9 -99.99 -9.99
2019/05/19 19:54 EDT    2.44   3.70    5  180    9  79.0  66.9 1011.8 -9.9 -9.999 -99.9 -99.99 -9.99
2019/05/19 20:00 EDT    2.51   3.76    6  179    8  79.5  66.7 1011.8 -9.9 -9.999 -99.9 -99.99 -9.99
2019/05/19 20:06 EDT    2.58   3.82    7  178   10  79.2  66.7 1011.8 -9.9 -9.999 -99.9 -99.99 -9.99
2019/05/19 20:12 EDT    2.65   3.88    9  184   12  81.3  66.9 1011.7 -9.9 -9.999 -99.9 -99.99 -9.99
2019/05/19 20:18 EDT    2.71   3.93   10  179   12  81.0  66.9 1011.5 -9.9 -9.999 -99.9 -99.99 -9.99
2019/05/19 20:24 EDT    2.76   3.97   10  180   11  80.1  66.7 1011.3 -9.9 -9.999 -99.9 -99.99 -9.99
2019/05/19 20:30 EDT    2.82   4.00    9  190   11  81.9  66.7 1011.5 -9.9 -9.999 -99.9 -99.99 -9.99
2019/05/19 20:36 EDT    2.87   4.04    6  198    9  83.1  66.7 1011.6 -9.9 -9.999 -99.9 -99.99 -9.99
2019/05/19 20:42 EDT    2.91   4.08    6  185   11  81.9  66.7 1011.7 -9.9 -9.999 -99.9 -99.99 -9.99
2019/05/19 20:48 EDT    2.95   4.10    8  189   11  81.3  66.7 1011.6 -9.9 -9.999 -99.9 -99.99 -9.99
2019/05/19 20:54 EDT    2.99   4.12    7  188    9  81.5  66.7 1011.7 -9.9 -9.999 -99.9 -99.99 -9.99
2019/05/19 21:00 EDT    3.02   4.15    6  193    9  81.9  66.7 1011.8 -9.9 -9.999 -99.9 -99.99 -9.99
2019/05/19 21:06 EDT    3.05   4.16    7  189    9  81.9  66.7 1011.9 -9.9 -9.999 -99.9 -99.99 -9.99
2019/05/19 21:12 EDT    3.07   4.18    7  188   10  81.3  66.6 1012.0 -9.9 -9.999 -99.9 -99.99 -9.99
2019/05/19 21:18 EDT    3.09   4.18    7  184    9  81.1  66.6 1012.1 -9.9 -9.999 -99.9 -99.99 -9.99
2019/05/19 21:24 EDT    3.10   4.18    7  186   11  78.8  66.6 1012.2 -9.9 -9.999 -99.9 -99.99 -9.99
2019/05/19 21:30 EDT    3.11   4.19    7  177    9  78.1  66.6 1012.3 -9.9 -9.999 -99.9 -99.99 -9.99
2019/05/19 21:36 EDT    3.12   4.19    5  176    7  78.1  66.6 1012.5 -9.9 -9.999 -99.9 -99.99 -9.99
2019/05/19 21:42 EDT    3.11   4.18    5  169    6  77.9  66.6 1012.5 -9.9 -9.999 -99.9 -99.99 -9.99
2019/05/19 21:48 EDT    3.11   4.17    4  170    5  79.0  66.6 1012.6 -9.9 -9.999 -99.9 -99.99 -9.99
2019/05/19 21:54 EDT    3.10   4.15    5  169    5  79.5  66.6 1012.5 -9.9 -9.999 -99.9 -99.99 -9.99
2019/05/19 22:00 EDT    3.08   4.14    4  167    7  78.6  66.6 1012.5 -9.9 -9.999 -99.9 -99.99 -9.99
2019/05/19 22:06 EDT    3.06   4.12    6  180    8  78.6  66.6 1012.6 -9.9 -9.999 -99.9 -99.99 -9.99
2019/05/19 22:12 EDT    3.03   4.09    6  183    7  77.7  66.6 1012.6 -9.9 -9.999 -99.9 -99.99 -9.99
2019/05/19 22:18 EDT    3.00   4.07    6  177    7  76.8  66.6 1012.6 -9.9 -9.999 -99.9 -99.99 -9.99
2019/05/19 22:24 EDT    2.97   4.03    5  185    6  76.8  66.6 1012.8 -9.9 -9.999 -99.9 -99.99 -9.99
2019/05/19 22:30 EDT    2.93   4.00    4  185    5  76.3  66.6 1012.8 -9.9 -9.999 -99.9 -99.99 -9.99
2019/05/19 22:36 EDT    2.89   3.97    4  179    7  76.8  66.6 1012.8 -9.9 -9.999 -99.9 -99.99 -9.99
2019/05/19 22:42 EDT    2.84   3.93    5  179    9  76.6  66.6 1012.9 -9.9 -9.999 -99.9 -99.99 -9.99
2019/05/19 22:48 EDT    2.80   3.88    7  183   10  77.9  66.6 1012.8 -9.9 -9.999 -99.9 -99.99 -9.99
2019/05/19 22:54 EDT    2.75   3.84    7  185    9  78.6  66.6 1012.9 -9.9 -9.999 -99.9 -99.99 -9.99
2019/05/19 23:00 EDT    2.69   3.80    8  183   10  78.3  66.7 1012.9 -9.9 -9.999 -99.9 -99.99 -9.99
2019/05/19 23:06 EDT    2.64   3.75    8  180   11  77.9  66.7 1012.8 -9.9 -9.999 -99.9 -99.99 -9.99
2019/05/19 23:12 EDT    2.58   3.68    9  181   11  77.7  66.7 1012.7 -9.9 -9.999 -99.9 -99.99 -9.99
2019/05/19 23:18 EDT    2.52   3.63    7  187   10  78.3  66.7 1012.7 -9.9 -9.999 -99.9 -99.99 -9.99
2019/05/19 23:24 EDT    2.46   3.58    8  186   10  78.4  66.7 1012.6 -9.9 -9.999 -99.9 -99.99 -9.99
2019/05/19 23:30 EDT    2.40   3.52    8  186   11  77.9  66.7 1012.6 -9.9 -9.999 -99.9 -99.99 -9.99
2019/05/19 23:36 EDT    2.33   3.46    7  184    9  77.7  66.7 1012.6 -9.9 -9.999 -99.9 -99.99 -9.99
2019/05/19 23:42 EDT    2.27   3.39    6  182    9  77.2  66.7 1012.7 -9.9 -9.999 -99.9 -99.99 -9.99
2019/05/19 23:48 EDT    2.21   3.34    7  181    9  76.5  66.7 1012.7 -9.9 -9.999 -99.9 -99.99 -9.99
2019/05/19 23:54 EDT    2.14   3.28    7  179    9  75.0  66.7 1012.7 -9.9 -9.999 -99.9 -99.99 -9.99
2019/05/20 00:00 EDT    2.08   3.21    7  177    9  73.0  66.7 1012.6 -9.9 -9.999 -99.9 -99.99 -9.99
2019/05/20 00:06 EDT    2.01   3.16    8  175    9  73.4  66.7 1012.6 -9.9 -9.999 -99.9 -99.99 -9.99
2019/05/20 00:12 EDT    1.95   3.09    7  183    9  75.2  66.7 1012.6 -9.9 -9.999 -99.9 -99.99 -9.99
2019/05/20 00:18 EDT    1.89   3.03    8  184   10  76.8  66.7 1012.6 -9.9 -9.999 -99.9 -99.99 -9.99
2019/05/20 00:24 EDT    1.82   2.97    6  192   10  77.0  66.7 1012.7 -9.9 -9.999 -99.9 -99.99 -9.99
2019/05/20 00:30 EDT    1.76   2.91    7  193    9  76.8  66.7 1012.7 -9.9 -9.999 -99.9 -99.99 -9.99
2019/05/20 00:36 EDT    1.70   2.85    7  190    9  76.8  66.7 1012.7 -9.9 -9.999 -99.9 -99.99 -9.99
2019/05/20 00:42 EDT    1.63   2.79    7  190    9  76.5  66.9 1012.7 -9.9 -9.999 -99.9 -99.99 -9.99
2019/05/20 00:48 EDT    1.57   2.73    6  190    8  76.1  66.9 1012.7 -9.9 -9.999 -99.9 -99.99 -9.99
2019/05/20 00:54 EDT    1.51   2.67    6  192    8  76.1  66.9 1012.7 -9.9 -9.999 -99.9 -99.99 -9.99
2019/05/20 01:00 EDT    1.45   2.61    6  192    9  76.1  66.9 1012.7 -9.9 -9.999 -99.9 -99.99 -9.99
2019/05/20 01:06 EDT    1.39   2.55    7  194   10  75.9  66.9 1012.7 -9.9 -9.999 -99.9 -99.99 -9.99
2019/05/20 01:12 EDT    1.33   2.50    7  188   11  75.9  66.9 1012.7 -9.9 -9.999 -99.9 -99.99 -9.99
2019/05/20 01:18 EDT    1.28   2.44    8  187   10  75.6  66.9 1012.7 -9.9 -9.999 -99.9 -99.99 -9.99
2019/05/20 01:24 EDT    1.22   2.38    7  187   10  75.6  66.9 1012.7 -9.9 -9.999 -99.9 -99.99 -9.99
2019/05/20 01:30 EDT    1.17   2.33    7  185    9  75.6  66.9 1012.7 -9.9 -9.999 -99.9 -99.99 -9.99
2019/05/20 01:36 EDT    1.12   2.27    7  182    9  75.2  66.9 1012.7 -9.9 -9.999 -99.9 -99.99 -9.99
2019/05/20 01:42 EDT    1.06   2.23    7  183    8  74.8  66.9 1012.7 -9.9 -9.999 -99.9 -99.99 -9.99
2019/05/20 01:48 EDT    1.01   2.18    7  188   10  75.2  66.9 1012.7 -9.9 -9.999 -99.9 -99.99 -9.99
2019/05/20 01:54 EDT    0.96   2.13    7  191    8  75.2  66.9 1012.6 -9.9 -9.999 -99.9 -99.99 -9.99
2019/05/20 02:00 EDT    0.92   2.08    6  185    8  75.2  66.9 1012.6 -9.9 -9.999 -99.9 -99.99 -9.99
2019/05/20 02:06 EDT    0.87   2.03    7  189    9  75.4  66.9 1012.6 -9.9 -9.999 -99.9 -99.99 -9.99
2019/05/20 02:12 EDT    0.83   1.99    7  194    8  75.4  66.9 1012.6 -9.9 -9.999 -99.9 -99.99 -9.99
2019/05/20 02:18 EDT    0.78   1.95    6  188    8  75.2  66.9 1012.5 -9.9 -9.999 -99.9 -99.99 -9.99
2019/05/20 02:24 EDT    0.74   1.91    6  186    9  75.0  66.9 1012.4 -9.9 -9.999 -99.9 -99.99 -9.99
2019/05/20 02:30 EDT    0.70   1.87    7  182    9  74.8  66.9 1012.3 -9.9 -9.999 -99.9 -99.99 -9.99
2019/05/20 02:36 EDT    0.66   1.83    7  181    8  74.3  66.9 1012.2 -9.9 -9.999 -99.9 -99.99 -9.99
2019/05/20 02:42 EDT    0.62   1.79    8  184   10  74.7  67.1 1012.2 -9.9 -9.999 -99.9 -99.99 -9.99
2019/05/20 02:48 EDT    0.59   1.75    7  186   10  75.2  67.1 1012.1 -9.9 -9.999 -99.9 -99.99 -9.99
2019/05/20 02:54 EDT    0.55   1.72    7  186    9  75.6  67.1 1012.1 -9.9 -9.999 -99.9 -99.99 -9.99
2019/05/20 03:00 EDT    0.52   1.68    6  189    9  75.6  67.1 1012.2 -9.9 -9.999 -99.9 -99.99 -9.99
2019/05/20 03:06 EDT    0.48   1.65    5  192    6  75.2  67.1 1012.2 -9.9 -9.999 -99.9 -99.99 -9.99
2019/05/20 03:12 EDT    0.45   1.62    5  185    7  74.8  67.1 1012.2 -9.9 -9.999 -99.9 -99.99 -9.99
2019/05/20 03:18 EDT    0.42   1.59    5  186    9  74.8  67.1 1012.1 -9.9 -9.999 -99.9 -99.99 -9.99
2019/05/20 03:24 EDT    0.39   1.56    6  181    9  74.8  67.1 1012.0 -9.9 -9.999 -99.9 -99.99 -9.99
2019/05/20 03:30 EDT    0.37   1.53    7  182   10  75.0  67.1 1011.9 -9.9 -9.999 -99.9 -99.99 -9.99
2019/05/20 03:36 EDT    0.34   1.50    7  188   10  75.0  67.3 1012.0 -9.9 -9.999 -99.9 -99.99 -9.99
2019/05/20 03:42 EDT    0.32   1.48    7  186   10  75.0  67.3 1011.9 -9.9 -9.999 -99.9 -99.99 -9.99
2019/05/20 03:48 EDT    0.30   1.46    5  188    8  74.7  67.3 1012.0 -9.9 -9.999 -99.9 -99.99 -9.99
2019/05/20 03:54 EDT    0.28   1.43    6  189    8  74.8  67.3 1011.9 -9.9 -9.999 -99.9 -99.99 -9.99
2019/05/20 04:00 EDT    0.26   1.41    6  188   11  75.0  67.3 1011.9 -9.9 -9.999 -99.9 -99.99 -9.99
2019/05/20 04:06 EDT    0.25   1.39    8  203   11  75.6  67.3 1011.9 -9.9 -9.999 -99.9 -99.99 -9.99
2019/05/20 04:12 EDT    0.24   1.37    7  193   12  75.4  67.3 1011.9 -9.9 -9.999 -99.9 -99.99 -9.99
2019/05/20 04:18 EDT    0.23   1.35    8  197   10  75.6  67.3 1011.9 -9.9 -9.999 -99.9 -99.99 -9.99
2019/05/20 04:24 EDT    0.23   1.33    7  202   13  75.6  67.3 1011.9 -9.9 -9.999 -99.9 -99.99 -9.99
2019/05/20 04:30 EDT    0.24   1.32    9  204   12  75.7  67.3 1012.0 -9.9 -9.999 -99.9 -99.99 -9.99
2019/05/20 04:36 EDT    0.25   1.30    6  202   12  75.6  67.3 1012.0 -9.9 -9.999 -99.9 -99.99 -9.99
2019/05/20 04:42 EDT    0.26   1.30    7  209   11  75.6  67.5 1012.0 -9.9 -9.999 -99.9 -99.99 -9.99
2019/05/20 04:48 EDT    0.28   1.30    7  200   11  75.4  67.5 1012.0 -9.9 -9.999 -99.9 -99.99 -9.99
2019/05/20 04:54 EDT    0.30   1.31    9  198   13  75.4  67.5 1012.0 -9.9 -9.999 -99.9 -99.99 -9.99
2019/05/20 05:00 EDT    0.33   1.32    9  199   11  75.4  67.5 1012.0 -9.9 -9.999 -99.9 -99.99 -9.99
2019/05/20 05:06 EDT    0.37   1.34    6  205   11  75.2  67.5 1012.1 -9.9 -9.999 -99.9 -99.99 -9.99
2019/05/20 05:12 EDT    0.41   1.36    6  204   11  75.2  67.5 1012.1 -9.9 -9.999 -99.9 -99.99 -9.99
2019/05/20 05:18 EDT    0.46   1.39    7  213   10  75.0  67.5 1012.1 -9.9 -9.999 -99.9 -99.99 -9.99
2019/05/20 05:24 EDT    0.52   1.44    7  201   11  75.0  67.5 1012.1 -9.9 -9.999 -99.9 -99.99 -9.99
2019/05/20 05:30 EDT    0.58   1.49    8  200   11  74.8  67.5 1012.1 -9.9 -9.999 -99.9 -99.99 -9.99
2019/05/20 05:36 EDT    0.65   1.54    7  199   10  74.7  67.5 1012.1 -9.9 -9.999 -99.9 -99.99 -9.99
2019/05/20 05:42 EDT    0.72   1.62    6  193    9  74.3  67.5 1012.2 -9.9 -9.999 -99.9 -99.99 -9.99
2019/05/20 05:48 EDT    0.80   1.70    6  188   12  74.1  67.5 1012.2 -9.9 -9.999 -99.9 -99.99 -9.99
2019/05/20 05:54 EDT    0.89   1.78    5  197   11  74.1  67.6 1012.3 -9.9 -9.999 -99.9 -99.99 -9.99
2019/05/20 06:00 EDT    0.97   1.88    5  200    7  74.1  67.6 1012.3 -9.9 -9.999 -99.9 -99.99 -9.99
2019/05/20 06:06 EDT    1.07   1.97    5  201    7  73.9  67.6 1012.4 -9.9 -9.999 -99.9 -99.99 -9.99
2019/05/20 06:12 EDT    1.16   2.08    5  193    7  73.9  67.6 1012.5 -9.9 -9.999 -99.9 -99.99 -9.99
2019/05/20 06:18 EDT    1.26   2.19    5  195    8  73.9  67.6 1012.5 -9.9 -9.999 -99.9 -99.99 -9.99
2019/05/20 06:24 EDT    1.37   2.29    6  196    8  73.9  67.6 1012.5 -9.9 -9.999 -99.9 -99.99 -9.99
2019/05/20 06:30 EDT    1.47   2.40    5  205    7  73.9  67.6 1012.6 -9.9 -9.999 -99.9 -99.99 -9.99
2019/05/20 06:36 EDT    1.57   2.52    5  196    9  74.3  67.6 1012.6 -9.9 -9.999 -99.9 -99.99 -9.99
2019/05/20 06:42 EDT    1.68   2.63    6  194    8  74.1  67.6 1012.6 -9.9 -9.999 -99.9 -99.99 -9.99
2019/05/20 06:48 EDT    1.79   2.74    6  199    9  73.9  67.6 1012.6 -9.9 -9.999 -99.9 -99.99 -9.99
2019/05/20 06:54 EDT    1.89   2.85    5  200    8  73.9  67.6 1012.7 -9.9 -9.999 -99.9 -99.99 -9.99
2019/05/20 07:00 EDT    2.00   2.96    5  186    7  73.9  67.6 1012.7 -9.9 -9.999 -99.9 -99.99 -9.99
2019/05/20 07:06 EDT    2.10   3.06    5  192    7  73.9  67.5 1012.7 -9.9 -9.999 -99.9 -99.99 -9.99
2019/05/20 07:12 EDT    2.20   3.16    5  190    9  73.8  67.5 1012.8 -9.9 -9.999 -99.9 -99.99 -9.99
2019/05/20 07:18 EDT    2.30   3.25    5  179    7  73.8  67.5 1012.8 -9.9 -9.999 -99.9 -99.99 -9.99
2019/05/20 07:24 EDT    2.40   3.34    5  186    7  73.6  67.5 1012.8 -9.9 -9.999 -99.9 -99.99 -9.99
2019/05/20 07:30 EDT    2.50   3.42    5  180    6  73.4  67.5 1012.8 -9.9 -9.999 -99.9 -99.99 -9.99
2019/05/20 07:36 EDT    2.59   3.51    5  177    8  73.6  67.5 1012.8 -9.9 -9.999 -99.9 -99.99 -9.99
2019/05/20 07:42 EDT    2.68   3.58    5  175    8  73.9  67.5 1012.8 -9.9 -9.999 -99.9 -99.99 -9.99
2019/05/20 07:48 EDT    2.76   3.64    5  192    7  74.3  67.3 1012.8 -9.9 -9.999 -99.9 -99.99 -9.99
2019/05/20 07:54 EDT    2.84   3.71    5  186    9  74.7  67.3 1012.8 -9.9 -9.999 -99.9 -99.99 -9.99
2019/05/20 08:00 EDT    2.92   3.77    6  183    9  74.5  67.3 1012.8 -9.9 -9.999 -99.9 -99.99 -9.99
2019/05/20 08:06 EDT    2.99   3.83    6  178    8  74.5  67.3 1012.8 -9.9 -9.999 -99.9 -99.99 -9.99
2019/05/20 08:12 EDT    3.06   3.89    5  210   11  75.0  67.1 1012.8 -9.9 -9.999 -99.9 -99.99 -9.99
2019/05/20 08:18 EDT    3.13   3.94    7  208   10  75.7  66.9 1012.7 -9.9 -9.999 -99.9 -99.99 -9.99
2019/05/20 08:24 EDT    3.19   3.99    7  200    9  75.6  66.7 1012.7 -9.9 -9.999 -99.9 -99.99 -9.99
2019/05/20 08:30 EDT    3.25   4.03    5  204    6  76.1  66.7 1012.8 -9.9 -9.999 -99.9 -99.99 -9.99
2019/05/20 08:36 EDT    3.31   4.07    3  191    7  76.5  66.7 1012.7 -9.9 -9.999 -99.9 -99.99 -9.99
2019/05/20 08:42 EDT    3.36   4.11    4  200    9  77.0  66.7 1012.6 -9.9 -9.999 -99.9 -99.99 -9.99
2019/05/20 08:48 EDT    3.40   4.15    6  217    7  76.8  66.7 1012.5 -9.9 -9.999 -99.9 -99.99 -9.99
2019/05/20 08:54 EDT    3.44   4.18    5  215   10  76.5  66.7 1012.6 -9.9 -9.999 -99.9 -99.99 -9.99
2019/05/20 09:00 EDT    3.48   4.21    5  215    9  77.4  66.7 1012.6 -9.9 -9.999 -99.9 -99.99 -9.99
2019/05/20 09:06 EDT    3.51   4.24    5  185    9  77.4  66.7 1012.5 -9.9 -9.999 -99.9 -99.99 -9.99
2019/05/20 09:12 EDT    3.54   4.27    7  198    9  77.7  66.7 1012.5 -9.9 -9.999 -99.9 -99.99 -9.99
2019/05/20 09:18 EDT    3.57   4.29    7  180   10  75.7  66.7 1012.4 -9.9 -9.999 -99.9 -99.99 -9.99
2019/05/20 09:24 EDT    3.59   4.31    9  174   11  75.0  66.7 1012.3 -9.9 -9.999 -99.9 -99.99 -9.99
2019/05/20 09:30 EDT    3.60   4.32    9  180   11  75.4  66.7 1012.2 -9.9 -9.999 -99.9 -99.99 -9.99
2019/05/20 09:36 EDT    3.61   4.34   10  179   12  75.0  66.7 1012.3 -9.9 -9.999 -99.9 -99.99 -9.99
2019/05/20 09:42 EDT    3.62   4.35   10  182   11  76.3  66.7 1012.2 -9.9 -9.999 -99.9 -99.99 -9.99
2019/05/20 09:48 EDT    3.62   4.35    9  182   11  76.5  66.7 1012.2 -9.9 -9.999 -99.9 -99.99 -9.99
2019/05/20 09:54 EDT    3.61   4.35    7  175   10  76.6  66.7 1012.2 -9.9 -9.999 -99.9 -99.99 -9.99
2019/05/20 10:00 EDT    3.60   4.34    8  175   10  76.8  66.9 1012.1 -9.9 -9.999 -99.9 -99.99 -9.99
2019/05/20 10:06 EDT    3.59   4.34    9  174   11  77.2  66.9 1012.1 -9.9 -9.999 -99.9 -99.99 -9.99
2019/05/20 10:12 EDT    3.57   4.33    8  176   10  76.8  66.9 1012.1 -9.9 -9.999 -99.9 -99.99 -9.99
2019/05/20 10:18 EDT    3.55   4.32    9  176   11  77.2  67.3 1012.1 -9.9 -9.999 -99.9 -99.99 -9.99
2019/05/20 10:24 EDT    3.52   4.31   11  178   11  76.1  67.3 1011.9 -9.9 -9.999 -99.9 -99.99 -9.99
2019/05/20 10:30 EDT    3.49   4.29   10  178   11  75.7  67.3 1011.9 -9.9 -9.999 -99.9 -99.99 -9.99
2019/05/20 10:36 EDT    3.46   4.26    9  173   11  76.3  67.3 1011.8 -9.9 -9.999 -99.9 -99.99 -9.99
2019/05/20 10:42 EDT    3.42   4.24   10  175   11  76.1  67.5 1011.8 -9.9 -9.999 -99.9 -99.99 -9.99
2019/05/20 10:48 EDT    3.37   4.21   10  178   13  76.6  67.5 1011.8 -9.9 -9.999 -99.9 -99.99 -9.99
2019/05/20 10:54 EDT    3.33   4.17   11  181   13  77.4  67.5 1011.8 -9.9 -9.999 -99.9 -99.99 -9.99
2019/05/20 11:00 EDT    3.28   4.13   11  181   13  78.1  67.6 1011.8 -9.9 -9.999 -99.9 -99.99 -9.99
2019/05/20 11:06 EDT    3.23   4.08   11  179   12  77.2  67.8 1011.8 -9.9 -9.999 -99.9 -99.99 -9.99
2019/05/20 11:12 EDT    3.17   4.04   11  181   14  77.2  68.0 1011.9 -9.9 -9.999 -99.9 -99.99 -9.99
2019/05/20 11:18 EDT    3.11   3.99   11  180   13  77.9  68.2 1011.9 -9.9 -9.999 -99.9 -99.99 -9.99
2019/05/20 11:24 EDT    3.05   3.92   12  178   13  77.0  68.2 1011.9 -9.9 -9.999 -99.9 -99.99 -9.99
2019/05/20 11:30 EDT    2.99   3.86   11  175   13  77.0  68.2 1011.8 -9.9 -9.999 -99.9 -99.99 -9.99
2019/05/20 11:36 EDT    2.93   3.80   11  178   13  77.4  68.2 1011.7 -9.9 -9.999 -99.9 -99.99 -9.99
2019/05/20 11:42 EDT    2.87   3.74   11  176   13  77.9  68.2 1011.6 -9.9 -9.999 -99.9 -99.99 -9.99
2019/05/20 11:48 EDT    2.80   3.68   10  176   13  78.1  68.4 1011.6 -9.9 -9.999 -99.9 -99.99 -9.99
2019/05/20 11:54 EDT    2.74   3.62   12  170   14  78.4  68.5 1011.5 -9.9 -9.999 -99.9 -99.99 -9.99
2019/05/20 12:00 EDT    2.67   3.55   11  183   12  79.2  68.5 1011.5 -9.9 -9.999 -99.9 -99.99 -9.99
2019/05/20 12:06 EDT    2.60   3.49    9  178   13  79.7  68.5 1011.4 -9.9 -9.999 -99.9 -99.99 -9.99
2019/05/20 12:12 EDT    2.54   3.42   11  178   14  78.4  68.7 1011.3 -9.9 -9.999 -99.9 -99.99 -9.99
2019/05/20 12:18 EDT    2.47   3.35   11  176   13  80.2  68.7 1011.2 -9.9 -9.999 -99.9 -99.99 -9.99
2019/05/20 12:24 EDT    2.40   3.28    7  200   14  81.7  68.9 1011.1 -9.9 -9.999 -99.9 -99.99 -9.99
2019/05/20 12:30 EDT    2.34   3.22    9  212   13  83.5  68.7 1011.2 -9.9 -9.999 -99.9 -99.99 -9.99
2019/05/20 12:36 EDT    2.27   3.15    8  236   21  84.6  68.7 1011.2 -9.9 -9.999 -99.9 -99.99 -9.99
2019/05/20 12:42 EDT    2.21   3.08   13  245   16  85.1  68.9 1011.1 -9.9 -9.999 -99.9 -99.99 -9.99
2019/05/20 12:48 EDT    2.14   3.02    9  239   11  85.1  69.1 1011.1 -9.9 -9.999 -99.9 -99.99 -9.99
2019/05/20 12:54 EDT    2.08   2.96    7  260   12  84.9  69.1 1011.1 -9.9 -9.999 -99.9 -99.99 -9.99
2019/05/20 13:00 EDT    2.01   2.90    9  269   17  85.1  69.1 1011.0 -9.9 -9.999 -99.9 -99.99 -9.99
2019/05/20 13:06 EDT    1.95   2.82    8  245   12  85.3  69.1 1010.9 -9.9 -9.999 -99.9 -99.99 -9.99
2019/05/20 13:12 EDT    1.88   2.76   10  229   16  85.5  69.1 1010.8 -9.9 -9.999 -99.9 -99.99 -9.99
2019/05/20 13:18 EDT    1.82   2.71    8  254   16  85.6  69.3 1010.7 -9.9 -9.999 -99.9 -99.99 -9.99
2019/05/20 13:24 EDT    1.76   2.66    8  250   14  85.6  69.3 1010.6 -9.9 -9.999 -99.9 -99.99 -9.99
2019/05/20 13:30 EDT    1.70   2.59   10  251   13  85.6  69.4 1010.5 -9.9 -9.999 -99.9 -99.99 -9.99
2019/05/20 13:36 EDT    1.63   2.53    7  256   17  85.8  69.4 1010.3 -9.9 -9.999 -99.9 -99.99 -9.99
2019/05/20 13:42 EDT    1.57   2.47   10  254   13  85.6  69.6 1010.3 -9.9 -9.999 -99.9 -99.99 -9.99
2019/05/20 13:48 EDT    1.51   2.42    9  274   14  85.6  69.6 1010.2 -9.9 -9.999 -99.9 -99.99 -9.99
2019/05/20 13:54 EDT    1.46   2.36    7  261   11  85.8  69.6 1010.1 -9.9 -9.999 -99.9 -99.99 -9.99
2019/05/20 14:00 EDT    1.40   2.31    6  237   13  86.4  69.6 1010.1 -9.9 -9.999 -99.9 -99.99 -9.99
2019/05/20 14:06 EDT    1.34   2.26    9  249   18  86.0  69.6 1010.1 -9.9 -9.999 -99.9 -99.99 -9.99
2019/05/20 14:12 EDT    1.28   2.22   10  244   15  86.4  69.6 1010.0 -9.9 -9.999 -99.9 -99.99 -9.99
2019/05/20 14:18 EDT    1.23   2.18    6  258   12  86.0  69.6 1009.9 -9.9 -9.999 -99.9 -99.99 -9.99
2019/05/20 14:24 EDT    1.17   2.13    6  260   13  86.4  69.6 1009.8 -9.9 -9.999 -99.9 -99.99 -9.99
2019/05/20 14:30 EDT    1.12   2.09    9  244   15  86.0  69.6 1009.7 -9.9 -9.999 -99.9 -99.99 -9.99
2019/05/20 14:36 EDT    1.06   2.04    9  215   16  86.7  69.6 1009.6 -9.9 -9.999 -99.9 -99.99 -9.99
2019/05/20 14:42 EDT    1.01   2.00    9  226   14  86.5  69.6 1009.6 -9.9 -9.999 -99.9 -99.99 -9.99
2019/05/20 14:48 EDT    0.96   1.95    8  250   15  87.1  69.6 1009.5 -9.9 -9.999 -99.9 -99.99 -9.99
2019/05/20 14:54 EDT    0.90   1.90    9  253   16  86.7  69.6 1009.4 -9.9 -9.999 -99.9 -99.99 -9.99
2019/05/20 15:00 EDT    0.85   1.85    9  216   17  86.9  69.6 1009.3 -9.9 -9.999 -99.9 -99.99 -9.99
2019/05/20 15:06 EDT    0.80   1.81   11  231   15  86.7  69.6 1009.3 -9.9 -9.999 -99.9 -99.99 -9.99
2019/05/20 15:12 EDT    0.75   1.78    6  244   14  86.5  69.6 1009.2 -9.9 -9.999 -99.9 -99.99 -9.99
2019/05/20 15:18 EDT    0.70   1.76   10  228   16  87.1  69.6 1009.1 -9.9 -9.999 -99.9 -99.99 -9.99
2019/05/20 15:24 EDT    0.65   1.72    8  238   11  86.9  69.6 1009.0 -9.9 -9.999 -99.9 -99.99 -9.99
2019/05/20 15:30 EDT    0.60   1.67    8  233   12  87.3  69.6 1008.8 -9.9 -9.999 -99.9 -99.99 -9.99
2019/05/20 15:36 EDT    0.55   1.62    7  238   12  87.6  69.6 1008.7 -9.9 -9.999 -99.9 -99.99 -9.99
2019/05/20 15:42 EDT    0.51   1.59    8  251   12  87.6  69.6 1008.6 -9.9 -9.999 -99.9 -99.99 -9.99
2019/05/20 15:48 EDT    0.46   1.56   10  227   16  87.8  69.8 1008.6 -9.9 -9.999 -99.9 -99.99 -9.99
2019/05/20 15:54 EDT    0.41   1.53    7  219   15  88.0  69.8 1008.5 -9.9 -9.999 -99.9 -99.99 -9.99
2019/05/20 16:00 EDT    0.37   1.49   11  220   17  87.8  69.8 1008.4 -9.9 -9.999 -99.9 -99.99 -9.99
2019/05/20 16:06 EDT    0.32   1.46    9  251   12  87.3  69.8 1008.4 -9.9 -9.999 -99.9 -99.99 -9.99
2019/05/20 16:12 EDT    0.28   1.45    6  243    9  87.3  70.0 1008.2 -9.9 -9.999 -99.9 -99.99 -9.99
2019/05/20 16:18 EDT    0.24   1.42    6  226   16  88.2  70.2 1008.1 -9.9 -9.999 -99.9 -99.99 -9.99
2019/05/20 16:24 EDT    0.20   1.40    8  252   15  88.3  70.2 1008.1 -9.9 -9.999 -99.9 -99.99 -9.99
2019/05/20 16:30 EDT    0.17   1.37   10  242   13  87.3  70.2 1008.0 -9.9 -9.999 -99.9 -99.99 -9.99
2019/05/20 16:36 EDT    0.14   1.33    9  175   17  84.0  70.3 1007.9 -9.9 -9.999 -99.9 -99.99 -9.99
2019/05/20 16:42 EDT    0.11   1.30    9  194   11  86.2  70.3 1007.9 -9.9 -9.999 -99.9 -99.99 -9.99
2019/05/20 16:48 EDT    0.08   1.28    8  202   15  85.1  70.2 1008.0 -9.9 -9.999 -99.9 -99.99 -9.99
2019/05/20 16:54 EDT    0.06   1.27    9  194   14  83.8  70.2 1008.0 -9.9 -9.999 -99.9 -99.99 -9.99
2019/05/20 17:00 EDT    0.05   1.26   12  181   15  82.8  70.2 1008.0 -9.9 -9.999 -99.9 -99.99 -9.99
2019/05/20 17:06 EDT    0.04   1.25   13  185   17  82.8  70.3 1007.9 -9.9 -9.999 -99.9 -99.99 -9.99
2019/05/20 17:12 EDT    0.03   1.24   12  183   14  83.1  70.5 1007.9 -9.9 -9.999 -99.9 -99.99 -9.99
2019/05/20 17:18 EDT    0.03   1.21   11  181   14  83.1  70.5 1007.8 -9.9 -9.999 -99.9 -99.99 -9.99
2019/05/20 17:24 EDT    0.04   1.18   11  187   13  84.0  70.7 1007.9 -9.9 -9.999 -99.9 -99.99 -9.99
2019/05/20 17:30 EDT    0.05   1.16    9  181   12  82.9  70.9 1008.0 -9.9 -9.999 -99.9 -99.99 -9.99
2019/05/20 17:36 EDT    0.07   1.14    9  181   12  83.1  71.1 1008.0 -9.9 -9.999 -99.9 -99.99 -9.99
2019/05/20 17:42 EDT    0.09   1.13    9  185   13  83.1  71.1 1008.1 -9.9 -9.999 -99.9 -99.99 -9.99
2019/05/20 17:48 EDT    0.13   1.13   10  181   11  83.3  71.1 1008.0 -9.9 -9.999 -99.9 -99.99 -9.99
2019/05/20 17:54 EDT    0.17   1.12    6  200    7  82.9  71.1 1008.2 -9.9 -9.999 -99.9 -99.99 -9.99
2019/05/20 18:00 EDT    0.21   1.12    2  275    4  82.9  71.2 1008.2 -9.9 -9.999 -99.9 -99.99 -9.99
2019/05/20 18:06 EDT    0.26   1.13    3  316    6  84.2  71.2 1008.3 -9.9 -9.999 -99.9 -99.99 -9.99
2019/05/20 18:12 EDT    0.32   1.13    3  256    4  85.5  71.2 1008.2 -9.9 -9.999 -99.9 -99.99 -9.99
2019/05/20 18:18 EDT    0.38   1.15    2  240    4  85.3  71.2 1008.3 -9.9 -9.999 -99.9 -99.99 -9.99
2019/05/20 18:24 EDT    0.45   1.17    2  230    5  84.4  71.2 1008.4 -9.9 -9.999 -99.9 -99.99 -9.99
2019/05/20 18:30 EDT    0.53   1.20    4  258    5  84.9  71.2 1008.3 -9.9 -9.999 -99.9 -99.99 -9.99
2019/05/20 18:36 EDT    0.60   1.25    3  221    6  85.1  71.2 1008.4 -9.9 -9.999 -99.9 -99.99 -9.99
2019/05/20 18:42 EDT    0.69   1.30    3  238    7  85.6  71.2 1008.3 -9.9 -9.999 -99.9 -99.99 -9.99
2019/05/20 18:48 EDT    0.77   1.36    3  248    4  85.1  71.2 1008.3 -9.9 -9.999 -99.9 -99.99 -9.99
2019/05/20 18:54 EDT    0.86   1.44    2  322   10  85.6  71.2 1008.4 -9.9 -9.999 -99.9 -99.99 -9.99
2019/05/20 19:00 EDT    0.95   1.51    4  311   12  86.5  71.1 1008.4 -9.9 -9.999 -99.9 -99.99 -9.99
2019/05/20 19:06 EDT    1.04   1.59    9  320   13  86.5  71.1 1008.4 -9.9 -9.999 -99.9 -99.99 -9.99
2019/05/20 19:12 EDT    1.14   1.69    6  313   12  86.7  70.9 1008.3 -9.9 -9.999 -99.9 -99.99 -9.99
2019/05/20 19:18 EDT    1.23   1.78    8  324   14  86.4  70.9 1008.4 -9.9 -9.999 -99.9 -99.99 -9.99
2019/05/20 19:24 EDT    1.33   1.88    9  335   14  86.2  70.9 1008.5 -9.9 -9.999 -99.9 -99.99 -9.99
2019/05/20 19:30 EDT    1.42   1.99    6  326   10  85.5  70.7 1008.6 -9.9 -9.999 -99.9 -99.99 -9.99
2019/05/20 19:36 EDT    1.52   2.09    7  316   12  85.1  70.7 1008.7 -9.9 -9.999 -99.9 -99.99 -9.99
2019/05/20 19:42 EDT    1.61   2.19    7  318   12  84.6  70.7 1008.8 -9.9 -9.999 -99.9 -99.99 -9.99
2019/05/20 19:48 EDT    1.70   2.30    3  319   12  84.4  70.5 1008.8 -9.9 -9.999 -99.9 -99.99 -9.99
2019/05/20 19:54 EDT    1.79   2.41    6  323   10  84.2  70.5 1008.8 -9.9 -9.999 -99.9 -99.99 -9.99
2019/05/20 20:00 EDT    1.88   2.51    4  315    8  84.0  70.5 1008.8 -9.9 -9.999 -99.9 -99.99 -9.99
2019/05/20 20:06 EDT    1.97   2.62    6  322    8  83.8  70.3 1009.0 -9.9 -9.999 -99.9 -99.99 -9.99
2019/05/20 20:12 EDT    2.05   2.71    5  314    7  83.5  70.2 1009.1 -9.9 -9.999 -99.9 -99.99 -9.99
2019/05/20 20:18 EDT    2.13   2.81    5  307    7  83.1  70.0 1009.2 -9.9 -9.999 -99.9 -99.99 -9.99
2019/05/20 20:24 EDT    2.21   2.90    4  318    7  82.9  70.0 1009.2 -9.9 -9.999 -99.9 -99.99 -9.99
2019/05/20 20:30 EDT    2.29   2.99    5  313    8  82.4  70.0 1009.1 -9.9 -9.999 -99.9 -99.99 -9.99
2019/05/20 20:36 EDT    2.36   3.07    5  309    8  82.2  69.8 1009.2 -9.9 -9.999 -99.9 -99.99 -9.99
2019/05/20 20:42 EDT    2.43   3.15    5  311    6  82.0  69.8 1009.2 -9.9 -9.999 -99.9 -99.99 -9.99
2019/05/20 20:48 EDT    2.50   3.22    4  311   10  81.7  69.8 1009.5 -9.9 -9.999 -99.9 -99.99 -9.99
2019/05/20 20:54 EDT    2.56   3.28    4  308    7  81.9  69.8 1009.6 -9.9 -9.999 -99.9 -99.99 -9.99
2019/05/20 21:00 EDT    2.62   3.33    5  307    7  81.5  69.8 1009.6 -9.9 -9.999 -99.9 -99.99 -9.99
2019/05/20 21:06 EDT    2.68   3.38    6  306    9  81.3  69.8 1009.7 -9.9 -9.999 -99.9 -99.99 -9.99
2019/05/20 21:12 EDT    2.73   3.42    6  309    8  81.1  69.6 1009.8 -9.9 -9.999 -99.9 -99.99 -9.99
2019/05/20 21:18 EDT    2.78   3.46    4  315    7  80.6  69.6 1009.9 -9.9 -9.999 -99.9 -99.99 -9.99
2019/05/20 21:24 EDT    2.83   3.50    5  313    7  80.2  69.6 1010.0 -9.9 -9.999 -99.9 -99.99 -9.99
2019/05/20 21:30 EDT    2.87   3.52    6  307    9  80.1  69.4 1010.2 -9.9 -9.999 -99.9 -99.99 -9.99
2019/05/20 21:36 EDT    2.91   3.55    5  309    8  79.9  69.4 1010.4 -9.9 -9.999 -99.9 -99.99 -9.99
2019/05/20 21:42 EDT    2.94   3.58    5  311    8  79.7  69.4 1010.5 -9.9 -9.999 -99.9 -99.99 -9.99
2019/05/20 21:48 EDT    2.97   3.59    3  318   10  79.5  69.3 1010.4 -9.9 -9.999 -99.9 -99.99 -9.99
2019/05/20 21:54 EDT    3.00   3.59    5  316    9  79.5  69.3 1010.5 -9.9 -9.999 -99.9 -99.99 -9.99
2019/05/20 22:00 EDT    3.02   3.60    7  309    9  79.3  69.3 1010.5 -9.9 -9.999 -99.9 -99.99 -9.99
2019/05/20 22:06 EDT    3.03   3.61    5  315    9  79.0  69.1 1010.6 -9.9 -9.999 -99.9 -99.99 -9.99
2019/05/20 22:12 EDT    3.05   3.61    4  311    9  78.6  69.1 1010.6 -9.9 -9.999 -99.9 -99.99 -9.99
2019/05/20 22:18 EDT    3.05   3.61    4  306    9  78.4  69.1 1010.7 -9.9 -9.999 -99.9 -99.99 -9.99
2019/05/20 22:24 EDT    3.06   3.61    6  309   10  78.4  69.1 1010.8 -9.9 -9.999 -99.9 -99.99 -9.99
2019/05/20 22:30 EDT    3.06   3.61    5  299   11  78.1  69.1 1010.9 -9.9 -9.999 -99.9 -99.99 -9.99
2019/05/20 22:36 EDT    3.05   3.60    4  312   10  77.7  69.1 1011.0 -9.9 -9.999 -99.9 -99.99 -9.99
2019/05/20 22:42 EDT    3.04   3.58    6  308   10  77.7  69.1 1011.0 -9.9 -9.999 -99.9 -99.99 -9.99
2019/05/20 22:48 EDT    3.02   3.57    6  310   11  77.7  69.1 1010.9 -9.9 -9.999 -99.9 -99.99 -9.99
2019/05/20 22:54 EDT    3.00   3.55    6  304   19  77.7  69.1 1011.0 -9.9 -9.999 -99.9 -99.99 -9.99
2019/05/20 23:00 EDT    2.98   3.52   11  316   18  77.9  69.1 1011.1 -9.9 -9.999 -99.9 -99.99 -9.99
2019/05/20 23:06 EDT    2.95   3.49    7  320   21  77.5  69.3 1010.9 -9.9 -9.999 -99.9 -99.99 -9.99
2019/05/20 23:12 EDT    2.92   3.45   12  320   20  77.5  69.3 1011.0 -9.9 -9.999 -99.9 -99.99 -9.99
2019/05/20 23:18 EDT    2.88   3.42   14  323   22  77.4  69.3 1011.1 -9.9 -9.999 -99.9 -99.99 -9.99
2019/05/20 23:24 EDT    2.84   3.38   14  319   21  77.4  69.3 1011.1 -9.9 -9.999 -99.9 -99.99 -9.99
2019/05/20 23:30 EDT    2.80   3.34   12  324   19  77.2  69.3 1011.1 -9.9 -9.999 -99.9 -99.99 -9.99
2019/05/20 23:36 EDT    2.75   3.29   12  322   20  77.0  69.3 1011.2 -9.9 -9.999 -99.9 -99.99 -9.99
2019/05/20 23:42 EDT    2.70   3.23   11  324   14  76.8  69.3 1011.1 -9.9 -9.999 -99.9 -99.99 -9.99
2019/05/20 23:48 EDT    2.65   3.17    8  324   15  76.6  69.3 1011.3 -9.9 -9.999 -99.9 -99.99 -9.99
2019/05/20 23:54 EDT    2.59   3.12    7  327   15  76.5  69.3 1011.4 -9.9 -9.999 -99.9 -99.99 -9.99
2019/05/21 00:00 EDT    2.54   3.06    9  326   18  76.5  69.3 1011.5 -9.9 -9.999 -99.9 -99.99 -9.99
2019/05/21 00:06 EDT    2.48   2.99   12  327   17  76.5  69.3 1011.7 -9.9 -9.999 -99.9 -99.99 -9.99
2019/05/21 00:12 EDT    2.42   2.93   10  324   15  76.1  69.3 1011.8 -9.9 -9.999 -99.9 -99.99 -9.99
2019/05/21 00:18 EDT    2.36   2.87    9  325   17  75.6  69.3 1011.8 -9.9 -9.999 -99.9 -99.99 -9.99
2019/05/21 00:24 EDT    2.30   2.81    8  324   14  75.4  69.3 1012.0 -9.9 -9.999 -99.9 -99.99 -9.99
2019/05/21 00:30 EDT    2.24   2.75    9  331   14  75.2  69.3 1012.0 -9.9 -9.999 -99.9 -99.99 -9.99
2019/05/21 00:36 EDT    2.18   2.68    7  332   16  75.0  69.3 1012.0 -9.9 -9.999 -99.9 -99.99 -9.99
2019/05/21 00:42 EDT    2.12   2.62   11  325   17  74.7  69.3 1012.1 -9.9 -9.999 -99.9 -99.99 -9.99
2019/05/21 00:48 EDT    2.05   2.56    9  326   15  74.5  69.3 1012.1 -9.9 -9.999 -99.9 -99.99 -9.99
2019/05/21 00:54 EDT    1.99   2.50    7  334   13  74.1  69.3 1012.0 -9.9 -9.999 -99.9 -99.99 -9.99
2019/05/21 01:00 EDT    1.93   2.43    7  326   14  73.9  69.3 1012.1 -9.9 -9.999 -99.9 -99.99 -9.99
2019/05/21 01:06 EDT    1.86   2.37    6  327   13  73.6  69.3 1012.1 -9.9 -9.999 -99.9 -99.99 -9.99
2019/05/21 01:12 EDT    1.80   2.30    9  331   14  73.6  69.3 1012.2 -9.9 -9.999 -99.9 -99.99 -9.99
2019/05/21 01:18 EDT    1.74   2.24    4  341    8  73.4  69.3 1012.3 -9.9 -9.999 -99.9 -99.99 -9.99
2019/05/21 01:24 EDT    1.68   2.19    5  323    9  73.2  69.3 1012.3 -9.9 -9.999 -99.9 -99.99 -9.99
2019/05/21 01:30 EDT    1.62   2.13    5  328   10  73.0  69.3 1012.4 -9.9 -9.999 -99.9 -99.99 -9.99
2019/05/21 01:36 EDT    1.56   2.06    5  355   10  72.9  69.3 1012.3 -9.9 -9.999 -99.9 -99.99 -9.99
2019/05/21 01:42 EDT    1.50   2.01    6  322   10  72.5  69.3 1012.2 -9.9 -9.999 -99.9 -99.99 -9.99
2019/05/21 01:48 EDT    1.44   1.96    6  345   10  72.5  69.3 1012.2 -9.9 -9.999 -99.9 -99.99 -9.99
2019/05/21 01:54 EDT    1.39   1.92    5  337   10  72.3  69.3 1012.3 -9.9 -9.999 -99.9 -99.99 -9.99
2019/05/21 02:00 EDT    1.33   1.87    7  332   14  72.1  69.3 1012.3 -9.9 -9.999 -99.9 -99.99 -9.99
2019/05/21 02:06 EDT    1.28   1.81    7  340   10  72.0  69.3 1012.4 -9.9 -9.999 -99.9 -99.99 -9.99
2019/05/21 02:12 EDT    1.22   1.76    5  321   10  71.8  69.3 1012.6 -9.9 -9.999 -99.9 -99.99 -9.99
2019/05/21 02:18 EDT    1.17   1.71    5  332   12  71.4  69.3 1012.6 -9.9 -9.999 -99.9 -99.99 -9.99
2019/05/21 02:24 EDT    1.12   1.65    6  329   13  71.4  69.3 1012.7 -9.9 -9.999 -99.9 -99.99 -9.99
2019/05/21 02:30 EDT    1.07   1.60    4  328   13  71.2  69.3 1012.8 -9.9 -9.999 -99.9 -99.99 -9.99
2019/05/21 02:36 EDT    1.02   1.55    9  325   14  70.9  69.3 1013.0 -9.9 -9.999 -99.9 -99.99 -9.99
2019/05/21 02:42 EDT    0.97   1.51    6  352   13  70.7  69.3 1012.9 -9.9 -9.999 -99.9 -99.99 -9.99
2019/05/21 02:48 EDT    0.93   1.47    6  331   14  70.3  69.3 1013.0 -9.9 -9.999 -99.9 -99.99 -9.99
2019/05/21 02:54 EDT    0.89   1.43    8  327   12  70.2  69.3 1013.1 -9.9 -9.999 -99.9 -99.99 -9.99
2019/05/21 03:00 EDT    0.84   1.38    8  321   11  70.0  69.3 1013.3 -9.9 -9.999 -99.9 -99.99 -9.99
2019/05/21 03:06 EDT    0.80   1.33    4  319    8  70.0  69.3 1013.4 -9.9 -9.999 -99.9 -99.99 -9.99
2019/05/21 03:12 EDT    0.76   1.28    5  325   11  69.6  69.3 1013.4 -9.9 -9.999 -99.9 -99.99 -9.99
2019/05/21 03:18 EDT    0.73   1.23    7  322   13  69.4  69.3 1013.4 -9.9 -9.999 -99.9 -99.99 -9.99
2019/05/21 03:24 EDT    0.69   1.20    8  344   12  69.3  69.3 1013.5 -9.9 -9.999 -99.9 -99.99 -9.99
2019/05/21 03:30 EDT    0.66   1.16    7  336   11  68.9  69.1 1013.5 -9.9 -9.999 -99.9 -99.99 -9.99
2019/05/21 03:36 EDT    0.62   1.11    8  357   16  68.5  69.1 1013.6 -9.9 -9.999 -99.9 -99.99 -9.99
2019/05/21 03:42 EDT    0.59   1.08   10  341   16  68.4  69.1 1013.7 -9.9 -9.999 -99.9 -99.99 -9.99
2019/05/21 03:48 EDT    0.56   1.04   10  324   14  68.0  69.1 1013.7 -9.9 -9.999 -99.9 -99.99 -9.99
2019/05/21 03:54 EDT    0.53   1.00    7  329   13  67.8  69.1 1013.7 -9.9 -9.999 -99.9 -99.99 -9.99
2019/05/21 04:00 EDT    0.50   0.97    8  327   15  67.8  69.1 1013.7 -9.9 -9.999 -99.9 -99.99 -9.99
2019/05/21 04:06 EDT    0.48   0.94   10  323   13  67.5  69.1 1013.8 -9.9 -9.999 -99.9 -99.99 -9.99
2019/05/21 04:12 EDT    0.45   0.89    8  325   11  67.5  69.1 1013.9 -9.9 -9.999 -99.9 -99.99 -9.99
2019/05/21 04:18 EDT    0.43   0.85    7  320   14  67.3  69.1 1013.8 -9.9 -9.999 -99.9 -99.99 -9.99
2019/05/21 04:24 EDT    0.41   0.82    7  324   14  67.1  69.1 1013.9 -9.9 -9.999 -99.9 -99.99 -9.99
2019/05/21 04:30 EDT    0.39   0.79    8  330   14  66.9  69.1 1013.9 -9.9 -9.999 -99.9 -99.99 -9.99
2019/05/21 04:36 EDT    0.37   0.77    7  327   11  66.7  69.1 1013.9 -9.9 -9.999 -99.9 -99.99 -9.99
2019/05/21 04:42 EDT    0.35   0.75    8  326   11  66.6  69.1 1014.0 -9.9 -9.999 -99.9 -99.99 -9.99
2019/05/21 04:48 EDT    0.34   0.72    4  321   10  66.6  69.1 1014.0 -9.9 -9.999 -99.9 -99.99 -9.99
2019/05/21 04:54 EDT    0.33   0.70    5  329   10  66.4  69.1 1014.0 -9.9 -9.999 -99.9 -99.99 -9.99
2019/05/21 05:00 EDT    0.33   0.68    6  353   11  66.2  69.1 1014.1 -9.9 -9.999 -99.9 -99.99 -9.99
2019/05/21 05:06 EDT    0.32   0.66    6  331   11  66.0  69.1 1014.2 -9.9 -9.999 -99.9 -99.99 -9.99
2019/05/21 05:12 EDT    0.33   0.64    9  327   12  65.8  69.1 1014.3 -9.9 -9.999 -99.9 -99.99 -9.99
2019/05/21 05:18 EDT    0.33   0.63    5  335   10  65.8  69.1 1014.4 -9.9 -9.999 -99.9 -99.99 -9.99
2019/05/21 05:24 EDT    0.34   0.61    7  325   15  65.7  69.1 1014.4 -9.9 -9.999 -99.9 -99.99 -9.99
2019/05/21 05:30 EDT    0.36   0.60   10  323   15  65.3  69.3 1014.5 -9.9 -9.999 -99.9 -99.99 -9.99
2019/05/21 05:36 EDT    0.38   0.59    8  317   14  65.3  69.3 1014.6 -9.9 -9.999 -99.9 -99.99 -9.99
2019/05/21 05:42 EDT    0.40   0.59    5  328   13  65.1  69.3 1014.8 -9.9 -9.999 -99.9 -99.99 -9.99
2019/05/21 05:48 EDT    0.43   0.60    7  329   11  64.9  69.3 1014.9 -9.9 -9.999 -99.9 -99.99 -9.99
2019/05/21 05:54 EDT    0.47   0.60    6  318    9  64.8  69.3 1014.9 -9.9 -9.999 -99.9 -99.99 -9.99
2019/05/21 06:00 EDT    0.51   0.61    4  336    8  64.8  69.3 1015.1 -9.9 -9.999 -99.9 -99.99 -9.99
2019/05/21 06:06 EDT    0.56   0.63    4  359    4  64.8  69.1 1015.1 -9.9 -9.999 -99.9 -99.99 -9.99
2019/05/21 06:12 EDT    0.62   0.66    2  335    7  64.8  69.1 1015.2 -9.9 -9.999 -99.9 -99.99 -9.99
2019/05/21 06:18 EDT    0.68   0.69    6  331   10  64.8  69.1 1015.3 -9.9 -9.999 -99.9 -99.99 -9.99
2019/05/21 06:24 EDT    0.74   0.73    4  353   11  64.6  69.1 1015.4 -9.9 -9.999 -99.9 -99.99 -9.99
2019/05/21 06:30 EDT    0.82   0.78    7  356   11  64.0  69.1 1015.5 -9.9 -9.999 -99.9 -99.99 -9.99
2019/05/21 06:36 EDT    0.89   0.86    7  335   11  64.0  69.1 1015.7 -9.9 -9.999 -99.9 -99.99 -9.99
2019/05/21 06:42 EDT    0.97   0.94    8  334   15  63.9  69.1 1015.9 -9.9 -9.999 -99.9 -99.99 -9.99
2019/05/21 06:48 EDT    1.06   1.02    6  334   15  63.7  69.1 1016.1 -9.9 -9.999 -99.9 -99.99 -9.99
2019/05/21 06:54 EDT    1.15   1.11   10  313   18  63.5  69.1 1016.1 -9.9 -9.999 -99.9 -99.99 -9.99
2019/05/21 07:00 EDT    1.24   1.22   10  328   15  63.1  69.1 1016.2 -9.9 -9.999 -99.9 -99.99 -9.99
2019/05/21 07:06 EDT    1.34   1.31    6  340   12  63.5  69.1 1016.2 -9.9 -9.999 -99.9 -99.99 -9.99
2019/05/21 07:12 EDT    1.44   1.40    7  335   14  63.3  69.1 1016.3 -9.9 -9.999 -99.9 -99.99 -9.99
2019/05/21 07:18 EDT    1.54   1.51    8  312   11  63.1  69.1 1016.4 -9.9 -9.999 -99.9 -99.99 -9.99
2019/05/21 07:24 EDT    1.64   1.62    6   10   14  63.7  69.1 1016.4 -9.9 -9.999 -99.9 -99.99 -9.99
2019/05/21 07:30 EDT    1.74   1.74    9  332   15  63.3  69.1 1016.5 -9.9 -9.999 -99.9 -99.99 -9.99
2019/05/21 07:36 EDT    1.84   1.86   10  314   14  63.0  69.1 1016.5 -9.9 -9.999 -99.9 -99.99 -9.99
2019/05/21 07:42 EDT    1.94   1.98    6  324   10  63.5  69.1 1016.5 -9.9 -9.999 -99.9 -99.99 -9.99
2019/05/21 07:48 EDT    2.04   2.09    8  314   11  63.1  69.1 1016.6 -9.9 -9.999 -99.9 -99.99 -9.99
2019/05/21 07:54 EDT    2.14   2.19    8  298   17  63.3  69.1 1016.7 -9.9 -9.999 -99.9 -99.99 -9.99
2019/05/21 08:00 EDT    2.23   2.29    7  335   12  63.0  69.1 1016.8 -9.9 -9.999 -99.9 -99.99 -9.99
2019/05/21 08:06 EDT    2.33   2.39    5  346   16  63.3  69.1 1016.8 -9.9 -9.999 -99.9 -99.99 -9.99
2019/05/21 08:12 EDT    2.42   2.48   12  310   17  62.2  69.1 1016.9 -9.9 -9.999 -99.9 -99.99 -9.99
2019/05/21 08:18 EDT    2.51   2.56    7  331   19  63.0  69.1 1016.8 -9.9 -9.999 -99.9 -99.99 -9.99
2019/05/21 08:24 EDT    2.59   2.63    7  335   17  62.6  69.1 1017.1 -9.9 -9.999 -99.9 -99.99 -9.99
2019/05/21 08:30 EDT    2.68   2.70    8  331   15  62.4  69.1 1017.2 -9.9 -9.999 -99.9 -99.99 -9.99
2019/05/21 08:36 EDT    2.76   2.78   10  315   16  62.4  69.1 1017.3 -9.9 -9.999 -99.9 -99.99 -9.99
2019/05/21 08:42 EDT    2.83   2.83    8  330   17  62.6  69.1 1017.3 -9.9 -9.999 -99.9 -99.99 -9.99
2019/05/21 08:48 EDT    2.90   2.88   11  315   17  62.2  69.1 1017.4 -9.9 -9.999 -99.9 -99.99 -9.99
2019/05/21 08:54 EDT    2.97   2.94   11  328   14  62.6  69.1 1017.4 -9.9 -9.999 -99.9 -99.99 -9.99
2019/05/21 09:00 EDT    3.03   3.00   10  320   13  63.0  69.1 1017.4 -9.9 -9.999 -99.9 -99.99 -9.99
2019/05/21 09:06 EDT    3.09   3.04    7  327   11  63.1  68.9 1017.5 -9.9 -9.999 -99.9 -99.99 -9.99
2019/05/21 09:12 EDT    3.15   3.09    8  309   14  62.8  68.9 1017.5 -9.9 -9.999 -99.9 -99.99 -9.99
2019/05/21 09:18 EDT    3.20   3.14   10  326   16  63.0  68.9 1017.6 -9.9 -9.999 -99.9 -99.99 -9.99
2019/05/21 09:24 EDT    3.25   3.18   10  326   14  62.8  68.9 1017.8 -9.9 -9.999 -99.9 -99.99 -9.99
2019/05/21 09:30 EDT    3.29   3.22    6  348   13  63.1  68.9 1017.8 -9.9 -9.999 -99.9 -99.99 -9.99
2019/05/21 09:36 EDT    3.33   3.26    8  305   13  62.6  68.9 1017.8 -9.9 -9.999 -99.9 -99.99 -9.99
2019/05/21 09:42 EDT    3.37   3.30    9  308   13  62.6  68.9 1017.7 -9.9 -9.999 -99.9 -99.99 -9.99
2019/05/21 09:48 EDT    3.40   3.32   10  307   17  63.0  68.9 1017.8 -9.9 -9.999 -99.9 -99.99 -9.99
2019/05/21 09:54 EDT    3.43   3.32   11  306   20  62.2  68.9 1017.8 -9.9 -9.999 -99.9 -99.99 -9.99
2019/05/21 10:00 EDT    3.45   3.34   11  327   13  62.6  68.9 1017.8 -9.9 -9.999 -99.9 -99.99 -9.99
2019/05/21 10:06 EDT    3.47   3.37   10  320   15  63.0  68.9 1017.8 -9.9 -9.999 -99.9 -99.99 -9.99
2019/05/21 10:12 EDT    3.48   3.38    9  314   15  62.8  68.9 1017.8 -9.9 -9.999 -99.9 -99.99 -9.99
2019/05/21 10:18 EDT    3.50   3.39    8  309   14  62.8  68.9 1017.8 -9.9 -9.999 -99.9 -99.99 -9.99
2019/05/21 10:24 EDT    3.50   3.41    7  317   14  63.0  68.9 1017.7 -9.9 -9.999 -99.9 -99.99 -9.99
2019/05/21 10:30 EDT    3.51   3.41   10  323   17  63.5  68.9 1017.7 -9.9 -9.999 -99.9 -99.99 -9.99
2019/05/21 10:36 EDT    3.50   3.41   12  298   17  63.3  68.9 1017.6 -9.9 -9.999 -99.9 -99.99 -9.99
2019/05/21 10:42 EDT    3.50   3.40    7  307   13  63.3  68.9 1017.7 -9.9 -9.999 -99.9 -99.99 -9.99
2019/05/21 10:48 EDT    3.49   3.40    7  316   12  63.3  68.9 1017.5 -9.9 -9.999 -99.9 -99.99 -9.99
2019/05/21 10:54 EDT    3.47   3.40    9  325   14  64.4  68.9 1017.6 -9.9 -9.999 -99.9 -99.99 -9.99
2019/05/21 11:00 EDT    3.45   3.40    4  356   15  65.3  68.9 1017.6 -9.9 -9.999 -99.9 -99.99 -9.99
2019/05/21 11:06 EDT    3.43   3.38    8  340   12  64.6  68.9 1017.8 -9.9 -9.999 -99.9 -99.99 -9.99
2019/05/21 11:12 EDT    3.40   3.36    9  307   14  63.9  68.9 1017.8 -9.9 -9.999 -99.9 -99.99 -9.99
2019/05/21 11:18 EDT    3.37   3.32    3  343   12  65.3  69.1 1017.6 -9.9 -9.999 -99.9 -99.99 -9.99
2019/05/21 11:24 EDT    3.34   3.30    6  343   13  65.5  69.1 1017.6 -9.9 -9.999 -99.9 -99.99 -9.99
2019/05/21 11:30 EDT    3.30   3.28    3  333   10  64.9  69.1 1017.5 -9.9 -9.999 -99.9 -99.99 -9.99
2019/05/21 11:36 EDT    3.25   3.26    4  351   15  65.3  69.1 1017.5 -9.9 -9.999 -99.9 -99.99 -9.99
2019/05/21 11:42 EDT    3.21   3.23    9  338   13  65.3  69.1 1017.8 -9.9 -9.999 -99.9 -99.99 -9.99
2019/05/21 11:48 EDT    3.16   3.19    7  286    8  64.6  69.1 1017.8 -9.9 -9.999 -99.9 -99.99 -9.99
2019/05/21 11:54 EDT    3.11   3.14    6  324   15  65.3  69.1 1018.0 -9.9 -9.999 -99.9 -99.99 -9.99
2019/05/21 12:00 EDT    3.06   3.10   13  318   16  64.9  69.1 1018.2 -9.9 -9.999 -99.9 -99.99 -9.99
2019/05/21 12:06 EDT    3.00   3.07    8  302   11  65.1  69.1 1018.1 -9.9 -9.999 -99.9 -99.99 -9.99
2019/05/21 12:12 EDT    2.94   3.02    9  293   12  64.8  69.1 1017.8 -9.9 -9.999 -99.9 -99.99 -9.99
2019/05/21 12:18 EDT    2.88   2.96    9  319   14  65.8  69.1 1017.9 -9.9 -9.999 -99.9 -99.99 -9.99
2019/05/21 12:24 EDT    2.82   2.90   10  317   14  65.3  69.1 1017.7 -9.9 -9.999 -99.9 -99.99 -9.99
2019/05/21 12:30 EDT    2.76   2.86    7  324   13  65.8  69.1 1017.7 -9.9 -9.999 -99.9 -99.99 -9.99
2019/05/21 12:36 EDT    2.70   2.81    9  308   11  66.2  69.1 1017.6 -9.9 -9.999 -99.9 -99.99 -9.99
2019/05/21 12:42 EDT    2.64   2.74    8  297   13  65.8  69.1 1017.6 -9.9 -9.999 -99.9 -99.99 -9.99
2019/05/21 12:48 EDT    2.57   2.69   10  301   18  65.8  69.1 1017.7 -9.9 -9.999 -99.9 -99.99 -9.99
2019/05/21 12:54 EDT    2.51   2.63    9  324   13  66.6  69.1 1017.7 -9.9 -9.999 -99.9 -99.99 -9.99
2019/05/21 13:00 EDT    2.45   2.57    6  309   12  66.0  69.1 1017.6 -9.9 -9.999 -99.9 -99.99 -9.99
2019/05/21 13:06 EDT    2.38   2.52    8  311   15  66.6  69.1 1017.7 -9.9 -9.999 -99.9 -99.99 -9.99
2019/05/21 13:12 EDT    2.32   2.45    7  279    8  65.8  69.1 1017.6 -9.9 -9.999 -99.9 -99.99 -9.99
2019/05/21 13:18 EDT    2.25   2.41    6  270   13  66.4  69.1 1017.5 -9.9 -9.999 -99.9 -99.99 -9.99
2019/05/21 13:24 EDT    2.19   2.34    9  303   13  66.6  69.1 1017.6 -9.9 -9.999 -99.9 -99.99 -9.99
2019/05/21 13:30 EDT    2.13   2.27    7  296   13  67.1  69.1 1017.5 -9.9 -9.999 -99.9 -99.99 -9.99
2019/05/21 13:36 EDT    2.06   2.21    9  301   11  66.9  69.1 1017.3 -9.9 -9.999 -99.9 -99.99 -9.99
2019/05/21 13:42 EDT    2.00   2.16    7  314   14  67.5  69.1 1017.4 -9.9 -9.999 -99.9 -99.99 -9.99
2019/05/21 13:48 EDT    1.94   2.10    9  295   15  67.5  69.1 1017.5 -9.9 -9.999 -99.9 -99.99 -9.99
2019/05/21 13:54 EDT    1.88   2.04    9  302   11  67.3  69.1 1017.4 -9.9 -9.999 -99.9 -99.99 -9.99
2019/05/21 14:00 EDT    1.82   1.99    5  278   12  67.3  69.1 1017.2 -9.9 -9.999 -99.9 -99.99 -9.99
2019/05/21 14:06 EDT    1.76   1.92    9  293   12  67.3  69.1 1016.7 -9.9 -9.999 -99.9 -99.99 -9.99
2019/05/21 14:12 EDT    1.70   1.86    7  280   12  67.3  69.1 1016.6 -9.9 -9.999 -99.9 -99.99 -9.99
2019/05/21 14:18 EDT    1.64   1.81    8  301   15  68.0  69.1 1016.8 -9.9 -9.999 -99.9 -99.99 -9.99
2019/05/21 14:24 EDT    1.58   1.75    8  314   15  67.8  69.1 1016.8 -9.9 -9.999 -99.9 -99.99 -9.99
2019/05/21 14:30 EDT    1.53   1.71    6  326   10  67.8  69.1 1016.7 -9.9 -9.999 -99.9 -99.99 -9.99
2019/05/21 14:36 EDT    1.47   1.66    6  293   11  67.8  69.1 1016.7 -9.9 -9.999 -99.9 -99.99 -9.99
2019/05/21 14:42 EDT    1.41   1.59    8  303   10  68.0  69.1 1016.8 -9.9 -9.999 -99.9 -99.99 -9.99
2019/05/21 14:48 EDT    1.36   1.53    6  278   10  68.2  69.1 1016.9 -9.9 -9.999 -99.9 -99.99 -9.99
2019/05/21 14:54 EDT    1.30   1.49    6  314   11  68.5  69.1 1017.1 -9.9 -9.999 -99.9 -99.99 -9.99
2019/05/21 15:00 EDT    1.25   1.43    5  271   13  69.1  69.1 1017.4 -9.9 -9.999 -99.9 -99.99 -9.99
2019/05/21 15:06 EDT    1.20   1.38   12  322   17  69.6  69.1 1017.5 -9.9 -9.999 -99.9 -99.99 -9.99
2019/05/21 15:12 EDT    1.15   1.32    9  293   13  69.1  69.1 1017.7 -9.9 -9.999 -99.9 -99.99 -9.99
2019/05/21 15:18 EDT    1.10   1.28    7  320   16  69.6  69.1 1017.2 -9.9 -9.999 -99.9 -99.99 -9.99
2019/05/21 15:24 EDT    1.05   1.23    7  310   13  68.9  69.1 1017.1 -9.9 -9.999 -99.9 -99.99 -9.99
2019/05/21 15:30 EDT    1.00   1.17    5  306   13  70.0  69.1 1017.1 -9.9 -9.999 -99.9 -99.99 -9.99
2019/05/21 15:36 EDT    0.95   1.12    9  299   12  69.6  69.1 1017.0 -9.9 -9.999 -99.9 -99.99 -9.99
2019/05/21 15:42 EDT    0.90   1.09    8  302   11  69.8  69.1 1016.9 -9.9 -9.999 -99.9 -99.99 -9.99
2019/05/21 15:48 EDT    0.86   1.04    5  333   10  70.3  69.1 1017.0 -9.9 -9.999 -99.9 -99.99 -9.99
2019/05/21 15:54 EDT    0.81   0.99    8  307   13  70.2  69.1 1017.2 -9.9 -9.999 -99.9 -99.99 -9.99
2019/05/21 16:00 EDT    0.77   0.95    4  305   14  70.0  69.1 1017.0 -9.9 -9.999 -99.9 -99.99 -9.99
2019/05/21 16:06 EDT    0.72   0.91    7  335   15  71.1  69.1 1017.1 -9.9 -9.999 -99.9 -99.99 -9.99
2019/05/21 16:12 EDT    0.68   0.86    5  318    8  70.7  69.3 1017.1 -9.9 -9.999 -99.9 -99.99 -9.99
2019/05/21 16:18 EDT    0.63   0.82    7  319   15  71.2  69.3 1017.1 -9.9 -9.999 -99.9 -99.99 -9.99
2019/05/21 16:24 EDT    0.59   0.78    9  298   13  70.3  69.3 1017.2 -9.9 -9.999 -99.9 -99.99 -9.99
2019/05/21 16:30 EDT    0.55   0.73    7  324   14  70.9  69.3 1017.2 -9.9 -9.999 -99.9 -99.99 -9.99
2019/05/21 16:36 EDT    0.51   0.69    9  320   11  70.7  69.3 1017.3 -9.9 -9.999 -99.9 -99.99 -9.99
2019/05/21 16:42 EDT    0.47   0.65    4  319   16  71.1  69.3 1017.3 -9.9 -9.999 -99.9 -99.99 -9.99
2019/05/21 16:48 EDT    0.43   0.62    8  328   11  71.1  69.3 1017.3 -9.9 -9.999 -99.9 -99.99 -9.99
2019/05/21 16:54 EDT    0.39   0.58    7  310   14  70.9  69.3 1017.3 -9.9 -9.999 -99.9 -99.99 -9.99
2019/05/21 17:00 EDT    0.35   0.54   10  324   14  71.8  69.3 1017.4 -9.9 -9.999 -99.9 -99.99 -9.99
2019/05/21 17:06 EDT    0.32   0.49    7  351   13  71.8  69.3 1017.5 -9.9 -9.999 -99.9 -99.99 -9.99
2019/05/21 17:12 EDT    0.28   0.47    6  325   12  71.1  69.3 1017.6 -9.9 -9.999 -99.9 -99.99 -9.99
2019/05/21 17:18 EDT    0.25   0.44    6  336   11  72.0  69.3 1017.6 -9.9 -9.999 -99.9 -99.99 -9.99
2019/05/21 17:24 EDT    0.23   0.41    7  310   12  70.9  69.3 1017.6 -9.9 -9.999 -99.9 -99.99 -9.99
2019/05/21 17:30 EDT    0.20   0.37    7  308   12  71.1  69.3 1017.6 -9.9 -9.999 -99.9 -99.99 -9.99
2019/05/21 17:36 EDT    0.18   0.34    7  313   12  70.9  69.3 1017.6 -9.9 -9.999 -99.9 -99.99 -9.99
2019/05/21 17:42 EDT    0.16   0.31    8  308   10  70.9  69.3 1017.8 -9.9 -9.999 -99.9 -99.99 -9.99
2019/05/21 17:48 EDT    0.15   0.28    5  305   14  71.1  69.3 1017.8 -9.9 -9.999 -99.9 -99.99 -9.99
2019/05/21 17:54 EDT    0.14   0.25    4  333   13  72.3  69.3 1017.8 -9.9 -9.999 -99.9 -99.99 -9.99
2019/05/21 18:00 EDT    0.14   0.23    4  330    9  72.3  69.3 1017.9 -9.9 -9.999 -99.9 -99.99 -9.99
2019/05/21 18:06 EDT    0.14   0.20    4  319   11  72.1  69.3 1017.8 -9.9 -9.999 -99.9 -99.99 -9.99
2019/05/21 18:12 EDT    0.15   0.18    4  333   13  72.3  69.3 1017.8 -9.9 -9.999 -99.9 -99.99 -9.99
2019/05/21 18:18 EDT    0.17   0.16    8  311   13  70.9  69.3 1017.9 -9.9 -9.999 -99.9 -99.99 -9.99
2019/05/21 18:24 EDT    0.19   0.14    8  323   11  71.1  69.3 1017.7 -9.9 -9.999 -99.9 -99.99 -9.99
2019/05/21 18:30 EDT    0.21   0.11    5  345   12  72.0  69.3 1017.8 -9.9 -9.999 -99.9 -99.99 -9.99
2019/05/21 18:36 EDT    0.24   0.09    6  318    9  71.4  69.3 1017.7 -9.9 -9.999 -99.9 -99.99 -9.99
2019/05/21 18:42 EDT    0.28   0.07    5  310   12  71.2  69.3 1017.8 -9.9 -9.999 -99.9 -99.99 -9.99
2019/05/21 18:48 EDT    0.33   0.05    8  314   11  71.2  69.3 1017.9 -9.9 -9.999 -99.9 -99.99 -9.99
2019/05/21 18:54 EDT    0.38   0.04    5  317    9  71.1  69.3 1017.9 -9.9 -9.999 -99.9 -99.99 -9.99
2019/05/21 19:00 EDT    0.43   0.03    6  321    8  70.5  69.3 1018.0 -9.9 -9.999 -99.9 -99.99 -9.99
2019/05/21 19:06 EDT    0.50   0.03    6  317    8  71.1  69.3 1018.1 -9.9 -9.999 -99.9 -99.99 -9.99
2019/05/21 19:12 EDT    0.56   0.03    5  355    9  72.0  69.3 1018.0 -9.9 -9.999 -99.9 -99.99 -9.99
2019/05/21 19:18 EDT    0.63   0.04    5  313    9  71.1  69.3 1018.2 -9.9 -9.999 -99.9 -99.99 -9.99
2019/05/21 19:24 EDT    0.71   0.04    6  327    9  70.7  69.3 1018.4 -9.9 -9.999 -99.9 -99.99 -9.99
2019/05/21 19:30 EDT    0.79   0.07    5  320    8  70.3  69.3 1018.4 -9.9 -9.999 -99.9 -99.99 -9.99
2019/05/21 19:36 EDT    0.87   0.11    4  324    9  70.7  69.3 1018.3 -9.9 -9.999 -99.9 -99.99 -9.99
2019/05/21 19:42 EDT    0.95   0.15    4  325    8  70.7  69.3 1018.2 -9.9 -9.999 -99.9 -99.99 -9.99
2019/05/21 19:48 EDT    1.04   0.20    7  312   10  69.8  69.3 1018.3 -9.9 -9.999 -99.9 -99.99 -9.99
2019/05/21 19:54 EDT    1.13   0.25    5  312   11  69.6  69.3 1018.5 -9.9 -9.999 -99.9 -99.99 -9.99
2019/05/21 20:00 EDT    1.22   0.32    8  328   11  69.6  69.3 1018.7 -9.9 -9.999 -99.9 -99.99 -9.99
2019/05/21 20:06 EDT    1.31   0.40    6  346    9  69.8  69.3 1018.6 -9.9 -9.999 -99.9 -99.99 -9.99
2019/05/21 20:12 EDT    1.40   0.49    6  313   10  69.8  69.3 1018.7 -9.9 -9.999 -99.9 -99.99 -9.99
2019/05/21 20:18 EDT    1.49   0.57    5  315   11  69.8  69.3 1018.7 -9.9 -9.999 -99.9 -99.99 -9.99
2019/05/21 20:24 EDT    1.58   0.67    8  321   12  69.6  69.3 1018.8 -9.9 -9.999 -99.9 -99.99 -9.99
2019/05/21 20:30 EDT    1.67   0.76    7  308   12  69.6  69.3 1018.7 -9.9 -9.999 -99.9 -99.99 -9.99
2019/05/21 20:36 EDT    1.75   0.86    6  325    8  69.8  69.3 1018.7 -9.9 -9.999 -99.9 -99.99 -9.99
2019/05/21 20:42 EDT    1.84   0.96    6  322   10  69.8  69.3 1018.7 -9.9 -9.999 -99.9 -99.99 -9.99
2019/05/21 20:48 EDT    1.92   1.05    7  324    8  69.8  69.3 1018.8 -9.9 -9.999 -99.9 -99.99 -9.99
2019/05/21 20:54 EDT    2.00   1.15    3  342   10  70.0  69.3 1019.0 -9.9 -9.999 -99.9 -99.99 -9.99
2019/05/21 21:00 EDT    2.08   1.25    6  356   10  69.8  69.3 1019.0 -9.9 -9.999 -99.9 -99.99 -9.99
2019/05/21 21:06 EDT    2.15   1.35    4  359    8  69.8  69.3 1019.1 -9.9 -9.999 -99.9 -99.99 -9.99
2019/05/21 21:12 EDT    2.23   1.45    4  335    8  69.8  69.3 1019.2 -9.9 -9.999 -99.9 -99.99 -9.99
2019/05/21 21:18 EDT    2.30   1.53    3  334    5  69.6  69.4 1019.4 -9.9 -9.999 -99.9 -99.99 -9.99
2019/05/21 21:24 EDT    2.36   1.63    2  344    5  69.4  69.4 1019.3 -9.9 -9.999 -99.9 -99.99 -9.99
2019/05/21 21:30 EDT    2.43   1.72    4  317    8  68.7  69.4 1019.3 -9.9 -9.999 -99.9 -99.99 -9.99
2019/05/21 21:36 EDT    2.49   1.80    5  313    7  68.4  69.4 1019.4 -9.9 -9.999 -99.9 -99.99 -9.99
2019/05/21 21:42 EDT    2.54   1.87    1  334    6  68.2  69.4 1019.4 -9.9 -9.999 -99.9 -99.99 -9.99
2019/05/21 21:48 EDT    2.60   1.95    2  337    5  68.2  69.4 1019.4 -9.9 -9.999 -99.9 -99.99 -9.99
2019/05/21 21:54 EDT    2.65   2.02    4  341    7  68.7  69.4 1019.5 -9.9 -9.999 -99.9 -99.99 -9.99
2019/05/21 22:00 EDT    2.70   2.08    3  315    3  68.9  69.4 1019.6 -9.9 -9.999 -99.9 -99.99 -9.99
2019/05/21 22:06 EDT    2.74   2.14    2  310    8  68.5  69.4 1019.7 -9.9 -9.999 -99.9 -99.99 -9.99
2019/05/21 22:12 EDT    2.78   2.20    3  288    6  68.4  69.4 1019.8 -9.9 -9.999 -99.9 -99.99 -9.99
2019/05/21 22:18 EDT    2.82   2.26    3  314    4  68.2  69.4 1019.8 -9.9 -9.999 -99.9 -99.99 -9.99
2019/05/21 22:24 EDT    2.86   2.31    2  307    3  67.8  69.4 1019.8 -9.9 -9.999 -99.9 -99.99 -9.99
2019/05/21 22:30 EDT    2.89   2.35    4  323    8  67.5  69.4 1019.8 -9.9 -9.999 -99.9 -99.99 -9.99
2019/05/21 22:36 EDT    2.91   2.39    3  345    8  68.0  69.4 1019.9 -9.9 -9.999 -99.9 -99.99 -9.99
2019/05/21 22:42 EDT    2.94   2.43    5  354    7  68.0  69.4 1020.0 -9.9 -9.999 -99.9 -99.99 -9.99
2019/05/21 22:48 EDT    2.96   2.46    3  333    9  67.8  69.4 1020.0 -9.9 -9.999 -99.9 -99.99 -9.99
2019/05/21 22:54 EDT    2.97   2.49    5  336    9  67.5  69.4 1020.1 -9.9 -9.999 -99.9 -99.99 -9.99
2019/05/21 23:00 EDT    2.98   2.51    5  338    8  67.5  69.4 1020.1 -9.9 -9.999 -99.9 -99.99 -9.99
2019/05/21 23:06 EDT    2.99   2.53    6  355    8  67.5  69.4 1020.2 -9.9 -9.999 -99.9 -99.99 -9.99
2019/05/21 23:12 EDT    2.99   2.55    4  358    6  67.3  69.4 1020.2 -9.9 -9.999 -99.9 -99.99 -9.99
2019/05/21 23:18 EDT    2.99   2.57    3  358    7  67.1  69.4 1020.3 -9.9 -9.999 -99.9 -99.99 -9.99
2019/05/21 23:24 EDT    2.98   2.58    3    7    5  66.9  69.4 1020.2 -9.9 -9.999 -99.9 -99.99 -9.99
2019/05/21 23:30 EDT    2.97   2.59    3   13    6  66.9  69.4 1020.2 -9.9 -9.999 -99.9 -99.99 -9.99
2019/05/21 23:36 EDT    2.96   2.59    2    6    6  66.6  69.4 1020.1 -9.9 -9.999 -99.9 -99.99 -9.99
2019/05/21 23:42 EDT    2.94   2.60    3   14    6  66.6  69.4 1020.2 -9.9 -9.999 -99.9 -99.99 -9.99
2019/05/21 23:48 EDT    2.91   2.59    4   11    6  66.6  69.4 1020.3 -9.9 -9.999 -99.9 -99.99 -9.99
2019/05/21 23:54 EDT    2.89   2.58    3   16    7  66.6  69.4 1020.4 -9.9 -9.999 -99.9 -99.99 -9.99
2019/05/22 00:00 EDT    2.85   2.57    5    5    7  66.4  69.4 1020.4 -9.9 -9.999 -99.9 -99.99 -9.99
2019/05/22 00:06 EDT    2.82   2.56    4    5    6  66.4  69.4 1020.4 -9.9 -9.999 -99.9 -99.99 -9.99
2019/05/22 00:12 EDT    2.78   2.54    3    7    5  66.2  69.4 1020.4 -9.9 -9.999 -99.9 -99.99 -9.99
2019/05/22 00:18 EDT    2.74   2.52    2    9    5  66.0  69.4 1020.4 -9.9 -9.999 -99.9 -99.99 -9.99
2019/05/22 00:24 EDT    2.70   2.49    4    3    5  66.0  69.4 1020.4 -9.9 -9.999 -99.9 -99.99 -9.99
2019/05/22 00:30 EDT    2.65   2.46    3    5    4  65.7  69.4 1020.5 -9.9 -9.999 -99.9 -99.99 -9.99
2019/05/22 00:36 EDT    2.60   2.43    2   16    3  65.7  69.4 1020.6 -9.9 -9.999 -99.9 -99.99 -9.99
2019/05/22 00:42 EDT    2.55   2.40    0  360    3  65.7  69.4 1020.7 -9.9 -9.999 -99.9 -99.99 -9.99
2019/05/22 00:48 EDT    2.49   2.36    1   26    2  65.3  69.4 1020.7 -9.9 -9.999 -99.9 -99.99 -9.99
2019/05/22 00:54 EDT    2.44   2.32    1  312    4  64.8  69.4 1020.8 -9.9 -9.999 -99.9 -99.99 -9.99
2019/05/22 01:00 EDT    2.38   2.27    1  224    5  64.4  69.4 1020.8 -9.9 -9.999 -99.9 -99.99 -9.99
2019/05/22 01:06 EDT    2.33   2.22    3   14    6  64.6  69.4 1020.9 -9.9 -9.999 -99.9 -99.99 -9.99
2019/05/22 01:12 EDT    2.27   2.18    4    6    5  65.1  69.4 1020.9 -9.9 -9.999 -99.9 -99.99 -9.99
2019/05/22 01:18 EDT    2.21   2.14    2    4    4  64.9  69.4 1020.9 -9.9 -9.999 -99.9 -99.99 -9.99
2019/05/22 01:24 EDT    2.15   2.08    1  356    4  64.8  69.4 1021.1 -9.9 -9.999 -99.9 -99.99 -9.99
2019/05/22 01:30 EDT    2.09   2.02    3  358    3  64.6  69.4 1021.2 -9.9 -9.999 -99.9 -99.99 -9.99
2019/05/22 01:36 EDT    2.03   1.97    2  267    3  63.1  69.4 1021.3 -9.9 -9.999 -99.9 -99.99 -9.99
2019/05/22 01:42 EDT    1.97   1.92    1  279    2  62.8  69.4 1021.4 -9.9 -9.999 -99.9 -99.99 -9.99
2019/05/22 01:48 EDT    1.91   1.87    2  284    2  62.6  69.4 1021.4 -9.9 -9.999 -99.9 -99.99 -9.99
2019/05/22 01:54 EDT    1.85   1.81    1  293    2  62.2  69.4 1021.5 -9.9 -9.999 -99.9 -99.99 -9.99
2019/05/22 02:00 EDT    1.79   1.75    1  263    1  62.1  69.4 1021.6 -9.9 -9.999 -99.9 -99.99 -9.99
2019/05/22 02:06 EDT    1.73   1.70    1  289    1  61.9  69.4 1021.6 -9.9 -9.999 -99.9 -99.99 -9.99
2019/05/22 02:12 EDT    1.67   1.64    0  305    4  61.9  69.4 1021.6 -9.9 -9.999 -99.9 -99.99 -9.99
2019/05/22 02:18 EDT    1.61   1.58    3   36    8  61.9  69.4 1021.8 -9.9 -9.999 -99.9 -99.99 -9.99
2019/05/22 02:24 EDT    1.55   1.53    4   15   10  63.3  69.4 1021.8 -9.9 -9.999 -99.9 -99.99 -9.99
2019/05/22 02:30 EDT    1.50   1.48    5   14    8  63.5  69.4 1021.9 -9.9 -9.999 -99.9 -99.99 -9.99
2019/05/22 02:36 EDT    1.44   1.42    4   19    8  63.3  69.4 1022.0 -9.9 -9.999 -99.9 -99.99 -9.99
2019/05/22 02:42 EDT    1.38   1.37    4   27    8  63.1  69.4 1022.1 -9.9 -9.999 -99.9 -99.99 -9.99
2019/05/22 02:48 EDT    1.33   1.31    2   35    8  62.8  69.4 1022.1 -9.9 -9.999 -99.9 -99.99 -9.99
2019/05/22 02:54 EDT    1.28   1.26    4   29    7  62.6  69.4 1022.2 -9.9 -9.999 -99.9 -99.99 -9.99
2019/05/22 03:00 EDT    1.23   1.21    2   42    5  62.2  69.4 1022.3 -9.9 -9.999 -99.9 -99.99 -9.99
2019/05/22 03:06 EDT    1.17   1.16    0   28    7  62.1  69.4 1022.3 -9.9 -9.999 -99.9 -99.99 -9.99
2019/05/22 03:12 EDT    1.13   1.11    3   29    5  61.7  69.4 1022.4 -9.9 -9.999 -99.9 -99.99 -9.99
2019/05/22 03:18 EDT    1.08   1.06    1   14    6  61.3  69.4 1022.4 -9.9 -9.999 -99.9 -99.99 -9.99
2019/05/22 03:24 EDT    1.03   1.01    2   25    4  61.2  69.4 1022.4 -9.9 -9.999 -99.9 -99.99 -9.99
2019/05/22 03:30 EDT    0.99   0.97    1   14    7  61.2  69.4 1022.3 -9.9 -9.999 -99.9 -99.99 -9.99
2019/05/22 03:36 EDT    0.95   0.92    2   36    6  60.8  69.4 1022.4 -9.9 -9.999 -99.9 -99.99 -9.99
2019/05/22 03:42 EDT    0.90   0.88    2   42    6  60.8  69.4 1022.4 -9.9 -9.999 -99.9 -99.99 -9.99
2019/05/22 03:48 EDT    0.87   0.84    3   43    7  60.6  69.4 1022.3 -9.9 -9.999 -99.9 -99.99 -9.99
2019/05/22 03:54 EDT    0.83   0.79    2   28    6  60.4  69.4 1022.3 -9.9 -9.999 -99.9 -99.99 -9.99
2019/05/22 04:00 EDT    0.79   0.75    3   48    6  60.4  69.4 1022.4 -9.9 -9.999 -99.9 -99.99 -9.99
2019/05/22 04:06 EDT    0.76   0.71    1  194    5  60.4  69.4 1022.4 -9.9 -9.999 -99.9 -99.99 -9.99
2019/05/22 04:12 EDT    0.72   0.67    2   24    6  60.3  69.4 1022.5 -9.9 -9.999 -99.9 -99.99 -9.99
2019/05/22 04:18 EDT    0.69   0.63    0   63    3  60.3  69.4 1022.5 -9.9 -9.999 -99.9 -99.99 -9.99
2019/05/22 04:24 EDT    0.66   0.59    2   55    4  60.1  69.4 1022.6 -9.9 -9.999 -99.9 -99.99 -9.99
2019/05/22 04:30 EDT    0.63   0.56    1    4    2  59.9  69.4 1022.7 -9.9 -9.999 -99.9 -99.99 -9.99
2019/05/22 04:36 EDT    0.61   0.52    0   19    3  59.9  69.4 1022.7 -9.9 -9.999 -99.9 -99.99 -9.99
2019/05/22 04:42 EDT    0.58   0.49    1   38    3  59.9  69.3 1022.8 -9.9 -9.999 -99.9 -99.99 -9.99
2019/05/22 04:48 EDT    0.56   0.46    1  108    2  59.7  69.3 1022.9 -9.9 -9.999 -99.9 -99.99 -9.99
2019/05/22 04:54 EDT    0.54   0.43    0   40    3  59.5  69.3 1023.0 -9.9 -9.999 -99.9 -99.99 -9.99
2019/05/22 05:00 EDT    0.52   0.40    1  116    3  59.4  69.3 1023.1 -9.9 -9.999 -99.9 -99.99 -9.99
2019/05/22 05:06 EDT    0.50   0.37    0   83    3  59.4  69.3 1023.1 -9.9 -9.999 -99.9 -99.99 -9.99
2019/05/22 05:12 EDT    0.48   0.34    2   78    4  59.4  69.3 1023.1 -9.9 -9.999 -99.9 -99.99 -9.99
2019/05/22 05:18 EDT    0.46   0.31    1   59    2  59.2  69.3 1023.1 -9.9 -9.999 -99.9 -99.99 -9.99
2019/05/22 05:24 EDT    0.45   0.29    1   91    3  59.2  69.3 1023.2 -9.9 -9.999 -99.9 -99.99 -9.99
2019/05/22 05:30 EDT    0.44   0.27    0  113    2  59.0  69.3 1023.2 -9.9 -9.999 -99.9 -99.99 -9.99
2019/05/22 05:36 EDT    0.43   0.25    1   51    3  59.0  69.3 1023.4 -9.9 -9.999 -99.9 -99.99 -9.99
2019/05/22 05:42 EDT    0.42   0.24    2   23    3  59.0  69.3 1023.5 -9.9 -9.999 -99.9 -99.99 -9.99
2019/05/22 05:48 EDT    0.42   0.22    2   37    3  58.8  69.3 1023.5 -9.9 -9.999 -99.9 -99.99 -9.99
2019/05/22 05:54 EDT    0.42   0.21    1   46    2  58.8  69.3 1023.6 -9.9 -9.999 -99.9 -99.99 -9.99
2019/05/22 06:00 EDT    0.43   0.20    1   42    2  59.0  69.3 1023.6 -9.9 -9.999 -99.9 -99.99 -9.99
2019/05/22 06:06 EDT    0.43   0.19    1    9    4  59.0  69.3 1023.7 -9.9 -9.999 -99.9 -99.99 -9.99
2019/05/22 06:12 EDT    0.45   0.19    2    6    3  59.0  69.3 1023.8 -9.9 -9.999 -99.9 -99.99 -9.99
2019/05/22 06:18 EDT    0.46   0.18    2   18    4  59.2  69.3 1024.0 -9.9 -9.999 -99.9 -99.99 -9.99
2019/05/22 06:24 EDT    0.48   0.19    1   45    3  59.2  69.3 1024.1 -9.9 -9.999 -99.9 -99.99 -9.99
2019/05/22 06:30 EDT    0.51   0.20    1    6    3  59.4  69.3 1024.2 -9.9 -9.999 -99.9 -99.99 -9.99
2019/05/22 06:36 EDT    0.54   0.22    2   21    2  59.5  69.3 1024.3 -9.9 -9.999 -99.9 -99.99 -9.99
2019/05/22 06:42 EDT    0.58   0.25    2   53    3  59.7  69.3 1024.5 -9.9 -9.999 -99.9 -99.99 -9.99
2019/05/22 06:48 EDT    0.62 -99.99 -999 -999 -999 -99.9 -99.9 -999.9 -9.9 -9.999 -99.9 -99.99 -9.99
2019/05/22 06:54 EDT    0.67 -99.99 -999 -999 -999 -99.9 -99.9 -999.9 -9.9 -9.999 -99.9 -99.99 -9.99

Revised: 08/08/2018
NOAA / National Ocean Service
Web site owner: Center for Operational Oceanographic Products and Services